Wetterdaten: aktuell Sonntag, 05.02.2023 09:06
Datum Zeit Temp. Aussen Temp. o. S. Temp +5cm Feuchte Auss Luftdruck Regen Sonnenschein Regendauer Solar Windben Empfang
05.02.2023 09:06 6,4 C 5,6 C 3,3 C 98 % 1035,7 hPa 0,2 l/m 0 min 2 min 15 W/m 19,3 km/h (3 Bft) 97,87 %
05.02.2023 09:04 6,4 C 5,6 C 3,3 C 98 % 1035,6 hPa 0,0 l/m 0 min 2 min 16 W/m 12,9 km/h (3 Bft) 100,00 %
05.02.2023 09:02 6,4 C 5,6 C 3,3 C 98 % 1035,7 hPa 0,0 l/m 0 min 2 min 10 W/m 6,4 km/h (2 Bft) 97,87 %
05.02.2023 09:00 6,4 C 5,6 C 3,3 C 98 % 1035,7 hPa 0,0 l/m 0 min 2 min 8 W/m 6,4 km/h (2 Bft) 100,00 %
05.02.2023 08:58 6,4 C 5,6 C 3,3 C 98 % 1035,7 hPa 0,0 l/m 0 min 2 min 7 W/m 9,7 km/h (2 Bft) 100,00 %
05.02.2023 08:56 6,4 C 6,1 C 3,3 C 98 % 1035,7 hPa 0,0 l/m 0 min 2 min 9 W/m 6,4 km/h (2 Bft) 97,87 %
05.02.2023 08:54 6,4 C 6,1 C 3,3 C 98 % 1035,7 hPa 0,0 l/m 0 min 0 min 10 W/m 9,7 km/h (2 Bft) 95,74 %
05.02.2023 08:52 6,4 C 6,1 C 3,3 C 98 % 1035,7 hPa 0,0 l/m 0 min 0 min 7 W/m 12,9 km/h (3 Bft) 100,00 %
05.02.2023 08:50 6,4 C 6,1 C 3,3 C 98 % 1035,7 hPa 0,0 l/m 0 min 2 min 1 W/m 9,7 km/h (2 Bft) 100,00 %
05.02.2023 08:48 6,4 C 6,1 C 3,3 C 98 % 1035,7 hPa 0,0 l/m 0 min 2 min 5 W/m 6,4 km/h (2 Bft) 100,00 %
05.02.2023 08:46 6,4 C 6,1 C 3,3 C 98 % 1035,7 hPa 0,0 l/m 0 min 0 min 5 W/m 9,7 km/h (2 Bft) 100,00 %
05.02.2023 08:44 6,4 C 6,1 C 3,3 C 98 % 1035,7 hPa 0,0 l/m 0 min 0 min 0 W/m 9,7 km/h (2 Bft) 100,00 %
05.02.2023 08:42 6,4 C 6,1 C 3,3 C 98 % 1035,6 hPa 0,0 l/m 0 min 0 min 0 W/m 9,7 km/h (2 Bft) 100,00 %
05.02.2023 08:40 6,5 C 6,1 C 3,3 C 98 % 1035,7 hPa 0,0 l/m 0 min 2 min 0 W/m 6,4 km/h (2 Bft) 100,00 %
05.02.2023 08:38 6,4 C 6,1 C 3,3 C 98 % 1035,7 hPa 0,0 l/m 0 min 2 min 3 W/m 9,7 km/h (2 Bft) 100,00 %
05.02.2023 08:36 6,4 C 6,1 C 3,3 C 98 % 1035,6 hPa 0,0 l/m 0 min 2 min 5 W/m 12,9 km/h (3 Bft) 97,87 %
05.02.2023 08:34 6,4 C 6,1 C 3,3 C 98 % 1035,6 hPa 0,0 l/m 0 min 0 min 6 W/m 16,1 km/h (3 Bft) 98,00 %
05.02.2023 08:32 6,4 C 6,1 C 3,3 C 98 % 1035,6 hPa 0,2 l/m 0 min 0 min 6 W/m 6,4 km/h (2 Bft) 100,00 %
05.02.2023 08:30 6,5 C 6,1 C 3,3 C 98 % 1035,7 hPa 0,0 l/m 0 min 2 min 5 W/m 6,4 km/h (2 Bft) 100,00 %
05.02.2023 08:28 6,4 C 6,1 C 3,3 C 98 % 1035,7 hPa 0,0 l/m 0 min 2 min 0 W/m 12,9 km/h (3 Bft) 100,00 %
05.02.2023 08:26 6,4 C 6,1 C 3,3 C 98 % 1035,7 hPa 0,0 l/m 0 min 2 min 0 W/m 9,7 km/h (2 Bft) 97,87 %
05.02.2023 08:24 6,5 C 6,1 C 3,3 C 98 % 1035,7 hPa 0,0 l/m 0 min 2 min 0 W/m 9,7 km/h (2 Bft) 100,00 %
05.02.2023 08:22 6,4 C 6,1 C 3,3 C 98 % 1035,7 hPa 0,0 l/m 0 min 2 min 0 W/m 6,4 km/h (2 Bft) 100,00 %
05.02.2023 08:20 6,4 C 6,1 C 3,3 C 98 % 1035,7 hPa 0,0 l/m 0 min 0 min 0 W/m 6,4 km/h (2 Bft) 97,83 %
05.02.2023 08:18 6,4 C 6,1 C 3,3 C 98 % 1035,6 hPa 0,0 l/m 0 min 0 min 0 W/m 6,4 km/h (2 Bft) 97,87 %
05.02.2023 08:16 6,4 C 6,1 C 3,3 C 98 % 1035,6 hPa 0,0 l/m 0 min 2 min 0 W/m 9,7 km/h (2 Bft) 95,74 %
05.02.2023 08:14 6,4 C 6,1 C 3,3 C 98 % 1035,6 hPa 0,0 l/m 0 min 0 min 0 W/m 9,7 km/h (2 Bft) 97,87 %
05.02.2023 08:12 6,4 C 6,1 C 3,3 C 98 % 1035,6 hPa 0,0 l/m 0 min 2 min 0 W/m 6,4 km/h (2 Bft) 97,87 %
05.02.2023 08:10 6,4 C 6,1 C 3,3 C 98 % 1035,6 hPa 0,0 l/m 0 min 2 min 0 W/m 9,7 km/h (2 Bft) 95,74 %
05.02.2023 08:08 6,4 C 6,1 C 3,3 C 98 % 1035,6 hPa 0,0 l/m 0 min 2 min 0 W/m 9,7 km/h (2 Bft) 97,14 %
05.02.2023 08:06 6,4 C 6,1 C 3,3 C 98 % 1035,6 hPa 0,2 l/m 0 min 2 min 0 W/m 6,4 km/h (2 Bft) 96,61 %
05.02.2023 08:04 6,4 C 6,1 C 3,3 C 98 % 1035,6 hPa 0,0 l/m 0 min 2 min 0 W/m 12,9 km/h (3 Bft) 95,74 %
05.02.2023 08:02 6,4 C 6,1 C 3,3 C 98 % 1035,5 hPa 0,0 l/m 0 min 2 min 0 W/m 6,4 km/h (2 Bft) 97,87 %
05.02.2023 08:00 6,4 C 6,1 C 3,3 C 98 % 1035,6 hPa 0,0 l/m 0 min 2 min 0 W/m 9,7 km/h (2 Bft) 97,87 %
05.02.2023 07:58 6,4 C 6,1 C 3,3 C 98 % 1035,6 hPa 0,0 l/m 0 min 2 min 0 W/m 9,7 km/h (2 Bft) 97,87 %
05.02.2023 07:56 6,4 C 6,1 C 3,3 C 98 % 1035,7 hPa 0,0 l/m 0 min 2 min 0 W/m 9,7 km/h (2 Bft) 97,87 %
05.02.2023 07:54 6,4 C 6,1 C 3,3 C 98 % 1035,6 hPa 0,0 l/m 0 min 0 min 0 W/m 9,7 km/h (2 Bft) 97,83 %
05.02.2023 07:52 6,4 C 6,1 C 3,3 C 98 % 1035,6 hPa 0,0 l/m 0 min 0 min 0 W/m 6,4 km/h (2 Bft) 97,87 %
05.02.2023 07:50 6,5 C 6,1 C 3,3 C 98 % 1035,6 hPa 0,0 l/m 0 min 0 min 0 W/m 12,9 km/h (3 Bft) 97,87 %
05.02.2023 07:48 6,5 C 6,1 C 3,3 C 98 % 1035,6 hPa 0,0 l/m 0 min 0 min 0 W/m 3,2 km/h (1 Bft) 95,74 %
05.02.2023 07:46 6,5 C 6,1 C 3,3 C 98 % 1035,6 hPa 0,0 l/m 0 min 0 min 0 W/m 9,7 km/h (2 Bft) 93,62 %
05.02.2023 07:44 6,5 C 6,1 C 3,3 C 98 % 1035,7 hPa 0,0 l/m 0 min 0 min 0 W/m 6,4 km/h (2 Bft) 91,49 %
05.02.2023 07:42 6,5 C 6,1 C 3,3 C 98 % 1035,7 hPa 0,0 l/m 0 min 0 min 0 W/m 6,4 km/h (2 Bft) 91,30 %
05.02.2023 07:40 6,5 C 6,1 C 3,3 C 98 % 1035,7 hPa 0,0 l/m 0 min 0 min 0 W/m 6,4 km/h (2 Bft) 95,74 %
05.02.2023 07:38 6,5 C 6,1 C 3,3 C 98 % 1035,7 hPa 0,0 l/m 0 min 0 min 0 W/m 6,4 km/h (2 Bft) 100,00 %
05.02.2023 07:36 6,5 C 6,1 C 3,3 C 98 % 1035,8 hPa 0,0 l/m 0 min 0 min 0 W/m 9,7 km/h (2 Bft) 100,00 %
05.02.2023 07:34 6,5 C 6,1 C 3,3 C 98 % 1035,8 hPa 0,0 l/m 0 min 0 min 0 W/m 6,4 km/h (2 Bft) 95,74 %
05.02.2023 07:32 6,5 C 6,1 C 3,3 C 98 % 1035,7 hPa 0,0 l/m 0 min 0 min 0 W/m 6,4 km/h (2 Bft) 97,87 %
05.02.2023 07:30 6,6 C 6,1 C 3,3 C 98 % 1035,8 hPa 0,0 l/m 0 min 0 min 0 W/m 6,4 km/h (2 Bft) 100,00 %
05.02.2023 07:28 6,6 C 6,1 C 3,3 C 98 % 1035,7 hPa 0,0 l/m 0 min 0 min 0 W/m 6,4 km/h (2 Bft) 97,87 %
05.02.2023 07:26 6,6 C 6,1 C 3,3 C 98 % 1035,7 hPa 0,0 l/m 0 min 0 min 0 W/m 9,7 km/h (2 Bft) 100,00 %
05.02.2023 07:24 6,6 C 6,1 C 3,3 C 98 % 1035,8 hPa 0,0 l/m 0 min 0 min 0 W/m 9,7 km/h (2 Bft) 97,87 %
05.02.2023 07:22 6,6 C 6,1 C 3,3 C 98 % 1035,9 hPa 0,0 l/m 0 min 0 min 0 W/m 6,4 km/h (2 Bft) 95,74 %
05.02.2023 07:20 6,6 C 6,1 C 3,3 C 98 % 1035,8 hPa 0,0 l/m 0 min 0 min 0 W/m 6,4 km/h (2 Bft) 93,62 %
05.02.2023 07:18 6,6 C 6,1 C 3,3 C 98 % 1035,8 hPa 0,0 l/m 0 min 0 min 0 W/m 6,4 km/h (2 Bft) 97,87 %
05.02.2023 07:16 6,6 C 6,1 C 3,3 C 98 % 1035,9 hPa 0,0 l/m 0 min 0 min 0 W/m 9,7 km/h (2 Bft) 93,48 %
05.02.2023 07:14 6,6 C 6,1 C 3,3 C 98 % 1035,8 hPa 0,0 l/m 0 min 0 min 0 W/m 6,4 km/h (2 Bft) 100,00 %
05.02.2023 07:12 6,6 C 6,1 C 3,3 C 98 % 1035,9 hPa 0,0 l/m 0 min 0 min 0 W/m 12,9 km/h (3 Bft) 100,00 %
05.02.2023 07:10 6,6 C 6,1 C 3,3 C 98 % 1035,8 hPa 0,0 l/m 0 min 0 min 0 W/m 6,4 km/h (2 Bft) 97,87 %
05.02.2023 07:08 6,6 C 6,1 C 3,3 C 98 % 1035,8 hPa 0,0 l/m 0 min 0 min 0 W/m 12,9 km/h (3 Bft) 97,14 %
05.02.2023 07:06 6,7 C 6,1 C 3,3 C 98 % 1035,8 hPa 0,0 l/m 0 min 0 min 0 W/m 6,4 km/h (2 Bft) 98,31 %
05.02.2023 07:04 6,7 C 6,1 C 3,3 C 98 % 1035,9 hPa 0,0 l/m 0 min 0 min 0 W/m 6,4 km/h (2 Bft) 97,83 %
05.02.2023 07:02 6,7 C 6,1 C 3,3 C 98 % 1035,8 hPa 0,0 l/m 0 min 0 min 0 W/m 3,2 km/h (1 Bft) 97,87 %
05.02.2023 07:00 6,7 C 6,1 C 3,3 C 98 % 1035,8 hPa 0,0 l/m 0 min 0 min 0 W/m 6,4 km/h (2 Bft) 95,74 %
05.02.2023 06:58 6,7 C 6,1 C 3,3 C 98 % 1035,9 hPa 0,0 l/m 0 min 0 min 0 W/m 6,4 km/h (2 Bft) 97,87 %
05.02.2023 06:56 6,7 C 6,1 C 3,3 C 98 % 1035,9 hPa 0,0 l/m 0 min 0 min 0 W/m 6,4 km/h (2 Bft) 95,74 %
05.02.2023 06:54 6,7 C 6,1 C 3,3 C 98 % 1035,9 hPa 0,0 l/m 0 min 0 min 0 W/m 6,4 km/h (2 Bft) 97,87 %
05.02.2023 06:52 6,7 C 6,1 C 3,3 C 98 % 1035,8 hPa 0,0 l/m 0 min 0 min 0 W/m 9,7 km/h (2 Bft) 95,74 %
05.02.2023 06:50 6,7 C 6,1 C 3,3 C 98 % 1035,8 hPa 0,0 l/m 0 min 0 min 0 W/m 6,4 km/h (2 Bft) 97,83 %
05.02.2023 06:48 6,8 C 6,1 C 3,3 C 98 % 1035,9 hPa 0,0 l/m 0 min 0 min 0 W/m 6,4 km/h (2 Bft) 89,36 %
05.02.2023 06:46 6,8 C 6,1 C 3,3 C 98 % 1035,9 hPa 0,0 l/m 0 min 0 min 0 W/m 3,2 km/h (1 Bft) 72,34 %
05.02.2023 06:44 6,8 C 6,1 C 3,3 C 98 % 1035,9 hPa 0,0 l/m 0 min 0 min 0 W/m 6,4 km/h (2 Bft) 48,94 %
05.02.2023 06:42 6,8 C 6,1 C 3,3 C 98 % 1035,9 hPa 0,0 l/m 0 min 0 min 0 W/m 0,0 km/h (0 Bft) 59,57 %
05.02.2023 06:40 6,8 C 6,1 C 3,3 C 98 % 1035,9 hPa 0,0 l/m 0 min 0 min 0 W/m 3,2 km/h (1 Bft) 59,57 %
05.02.2023 06:38 6,8 C 6,1 C 3,3 C 98 % 1035,9 hPa 0,0 l/m 0 min 0 min 0 W/m 3,2 km/h (1 Bft) 89,13 %
05.02.2023 06:36 6,8 C 6,1 C 3,3 C 98 % 1035,9 hPa 0,0 l/m 0 min 0 min 0 W/m 6,4 km/h (2 Bft) 91,49 %
05.02.2023 06:34 6,8 C 6,1 C 3,3 C 98 % 1035,9 hPa 0,0 l/m 0 min 0 min 0 W/m 3,2 km/h (1 Bft) 89,36 %
05.02.2023 06:32 6,8 C 6,1 C 3,3 C 98 % 1035,9 hPa 0,0 l/m 0 min 0 min 0 W/m 3,2 km/h (1 Bft) 57,45 %
05.02.2023 06:30 6,8 C 6,1 C 3,3 C 98 % 1035,9 hPa 0,0 l/m 0 min 0 min 0 W/m 3,2 km/h (1 Bft) 76,60 %
05.02.2023 06:28 6,8 C 6,1 C 3,3 C 98 % 1035,9 hPa 0,0 l/m 0 min 0 min 0 W/m 6,4 km/h (2 Bft) 95,74 %
05.02.2023 06:26 6,8 C 6,1 C 3,3 C 98 % 1036,0 hPa 0,0 l/m 0 min 0 min 0 W/m 6,4 km/h (2 Bft) 97,83 %
05.02.2023 06:24 6,8 C 6,1 C 3,3 C 98 % 1036,0 hPa 0,0 l/m 0 min 0 min 0 W/m 3,2 km/h (1 Bft) 97,87 %
05.02.2023 06:22 6,8 C 6,1 C 3,3 C 98 % 1036,1 hPa 0,0 l/m 0 min 0 min 0 W/m 3,2 km/h (1 Bft) 95,74 %
05.02.2023 06:20 6,8 C 6,1 C 3,3 C 98 % 1036,1 hPa 0,0 l/m 0 min 0 min 0 W/m 6,4 km/h (2 Bft) 91,49 %
05.02.2023 06:18 6,8 C 6,1 C 3,3 C 98 % 1036,1 hPa 0,0 l/m 0 min 0 min 0 W/m 3,2 km/h (1 Bft) 91,49 %
05.02.2023 06:16 6,8 C 6,1 C 3,3 C 98 % 1036,1 hPa 0,0 l/m 0 min 0 min 0 W/m 3,2 km/h (1 Bft) 95,74 %
05.02.2023 06:14 6,8 C 6,1 C 3,3 C 98 % 1036,2 hPa 0,0 l/m 0 min 0 min 0 W/m 3,2 km/h (1 Bft) 97,87 %
05.02.2023 06:12 6,9 C 6,1 C 3,3 C 98 % 1036,2 hPa 0,0 l/m 0 min 0 min 0 W/m 3,2 km/h (1 Bft) 100,00 %
05.02.2023 06:10 6,9 C 6,1 C 3,3 C 98 % 1036,2 hPa 0,0 l/m 0 min 0 min 0 W/m 3,2 km/h (1 Bft) 100,00 %
05.02.2023 06:08 6,8 C 6,1 C 3,3 C 98 % 1036,1 hPa 0,0 l/m 0 min 0 min 0 W/m 6,4 km/h (2 Bft) 95,83 %
05.02.2023 06:07 6,8 C 6,1 C 3,3 C 98 % 1036,1 hPa 0,0 l/m 0 min 0 min 0 W/m 3,2 km/h (1 Bft) 97,44 %
05.02.2023 06:04 6,8 C 6,1 C 3,3 C 98 % 1036,0 hPa 0,0 l/m 0 min 0 min 0 W/m 3,2 km/h (1 Bft) 100,00 %
05.02.2023 06:02 6,8 C 6,1 C 3,3 C 98 % 1036,0 hPa 0,0 l/m 0 min 0 min 0 W/m 3,2 km/h (1 Bft) 100,00 %
05.02.2023 06:00 6,8 C 6,1 C 3,3 C 98 % 1036,0 hPa 0,0 l/m 0 min 0 min 0 W/m 3,2 km/h (1 Bft) 95,74 %
05.02.2023 05:58 6,8 C 6,1 C 3,3 C 98 % 1036,0 hPa 0,0 l/m 0 min 0 min 0 W/m 3,2 km/h (1 Bft) 97,87 %
05.02.2023 05:56 6,8 C 6,1 C 3,3 C 98 % 1036,1 hPa 0,0 l/m 0 min 0 min 0 W/m 9,7 km/h (2 Bft) 95,74 %
05.02.2023 05:54 6,8 C 6,1 C 3,3 C 98 % 1036,1 hPa 0,0 l/m 0 min 0 min 0 W/m 0,0 km/h (0 Bft) 97,87 %
05.02.2023 05:52 6,8 C 6,1 C 3,3 C 98 % 1036,1 hPa 0,0 l/m 0 min 0 min 0 W/m 3,2 km/h (1 Bft) 93,48 %
05.02.2023 05:50 6,8 C 6,1 C 3,3 C 98 % 1036,2 hPa 0,0 l/m 0 min 0 min 0 W/m 3,2 km/h (1 Bft) 95,74 %
05.02.2023 05:48 6,8 C 6,1 C 3,3 C 98 % 1036,2 hPa 0,0 l/m 0 min 0 min 0 W/m 3,2 km/h (1 Bft) 95,74 %
05.02.2023 05:46 6,8 C 6,1 C 3,3 C 98 % 1036,2 hPa 0,0 l/m 0 min 0 min 0 W/m 3,2 km/h (1 Bft) 95,74 %
05.02.2023 05:44 6,8 C 6,1 C 3,3 C 98 % 1036,2 hPa 0,0 l/m 0 min 0 min 0 W/m 3,2 km/h (1 Bft) 95,74 %
05.02.2023 05:42 6,8 C 6,1 C 3,3 C 98 % 1036,1 hPa 0,0 l/m 0 min 0 min 0 W/m 6,4 km/h (2 Bft) 95,74 %
05.02.2023 05:40 6,8 C 6,1 C 3,3 C 98 % 1036,2 hPa 0,0 l/m 0 min 0 min 0 W/m 9,7 km/h (2 Bft) 95,65 %
05.02.2023 05:38 6,8 C 6,1 C 3,3 C 98 % 1036,2 hPa 0,0 l/m 0 min 0 min 0 W/m 3,2 km/h (1 Bft) 95,74 %
05.02.2023 05:36 6,8 C 6,1 C 3,3 C 98 % 1036,2 hPa 0,0 l/m 0 min 0 min 0 W/m 6,4 km/h (2 Bft) 95,74 %
05.02.2023 05:34 6,8 C 6,1 C 3,3 C 98 % 1036,2 hPa 0,0 l/m 0 min 0 min 0 W/m 3,2 km/h (1 Bft) 95,74 %
05.02.2023 05:32 6,8 C 6,1 C 3,3 C 98 % 1036,2 hPa 0,0 l/m 0 min 0 min 0 W/m 6,4 km/h (2 Bft) 93,62 %
05.02.2023 05:30 6,8 C 6,1 C 3,3 C 98 % 1036,3 hPa 0,0 l/m 0 min 0 min 0 W/m 0,0 km/h (0 Bft) 95,74 %
05.02.2023 05:28 6,8 C 6,1 C 3,3 C 98 % 1036,3 hPa 0,0 l/m 0 min 0 min 0 W/m 3,2 km/h (1 Bft) 95,74 %
05.02.2023 05:26 6,8 C 6,1 C 3,3 C 98 % 1036,1 hPa 0,0 l/m 0 min 0 min 0 W/m 3,2 km/h (1 Bft) 95,65 %
05.02.2023 05:24 6,8 C 6,1 C 3,3 C 98 % 1036,1 hPa 0,0 l/m 0 min 0 min 0 W/m 3,2 km/h (1 Bft) 91,49 %
05.02.2023 05:22 6,8 C 6,1 C 3,3 C 98 % 1036,1 hPa 0,0 l/m 0 min 2 min 0 W/m 6,4 km/h (2 Bft) 97,87 %
05.02.2023 05:20 6,8 C 6,1 C 3,3 C 97 % 1036,1 hPa 0,0 l/m 0 min 2 min 0 W/m 9,7 km/h (2 Bft) 95,74 %
05.02.2023 05:18 6,8 C 6,1 C 3,3 C 97 % 1036,0 hPa 0,0 l/m 0 min 2 min 0 W/m 3,2 km/h (1 Bft) 95,74 %
05.02.2023 05:16 6,8 C 6,1 C 3,3 C 97 % 1036,0 hPa 0,2 l/m 0 min 2 min 0 W/m 3,2 km/h (1 Bft) 74,47 %
05.02.2023 05:14 6,8 C 6,1 C 3,3 C 97 % 1036,0 hPa 0,0 l/m 0 min 2 min 0 W/m 6,4 km/h (2 Bft) 78,26 %
05.02.2023 05:12 6,7 C 6,1 C 3,3 C 97 % 1036,0 hPa 0,0 l/m 0 min 2 min 0 W/m 9,7 km/h (2 Bft) 91,49 %
05.02.2023 05:10 6,7 C 6,1 C 3,3 C 97 % 1036,0 hPa 0,0 l/m 0 min 0 min 0 W/m 3,2 km/h (1 Bft) 87,23 %
05.02.2023 05:08 6,7 C 6,1 C 3,3 C 97 % 1036,0 hPa 0,0 l/m 0 min 0 min 0 W/m 3,2 km/h (1 Bft) 83,33 %
05.02.2023 05:06 6,7 C 6,1 C 3,3 C 97 % 1036,1 hPa 0,0 l/m 0 min 0 min 0 W/m 6,4 km/h (2 Bft) 82,81 %
05.02.2023 05:04 6,7 C 6,1 C 3,3 C 97 % 1036,0 hPa 0,0 l/m 0 min 0 min 0 W/m 3,2 km/h (1 Bft) 68,09 %
05.02.2023 05:02 6,7 C 6,1 C 3,3 C 97 % 1036,0 hPa 0,0 l/m 0 min 0 min 0 W/m 3,2 km/h (1 Bft) 67,39 %
05.02.2023 05:00 6,7 C 6,1 C 3,3 C 97 % 1036,0 hPa 0,0 l/m 0 min 0 min 0 W/m 6,4 km/h (2 Bft) 87,23 %
05.02.2023 04:58 6,6 C 6,1 C 3,3 C 97 % 1035,9 hPa 0,0 l/m 0 min 0 min 0 W/m 3,2 km/h (1 Bft) 100,00 %
05.02.2023 04:56 6,6 C 6,1 C 3,3 C 97 % 1035,7 hPa 0,0 l/m 0 min 0 min 0 W/m 3,2 km/h (1 Bft) 76,60 %
05.02.2023 04:54 6,6 C 6,1 C 3,3 C 97 % 1035,7 hPa 0,0 l/m 0 min 0 min 0 W/m 3,2 km/h (1 Bft) 93,62 %
05.02.2023 04:52 6,6 C 6,1 C 3,3 C 97 % 1035,7 hPa 0,0 l/m 0 min 0 min 0 W/m 0,0 km/h (0 Bft) 97,87 %
05.02.2023 04:50 6,6 C 6,1 C 3,3 C 97 % 1035,7 hPa 0,0 l/m 0 min 0 min 0 W/m 3,2 km/h (1 Bft) 100,00 %
05.02.2023 04:48 6,6 C 5,6 C 3,3 C 97 % 1035,8 hPa 0,0 l/m 0 min 0 min 0 W/m 3,2 km/h (1 Bft) 71,74 %
05.02.2023 04:46 6,6 C 5,6 C 3,3 C 97 % 1035,8 hPa 0,0 l/m 0 min 0 min 0 W/m 3,2 km/h (1 Bft) 59,57 %
05.02.2023 04:44 6,6 C 5,6 C 3,3 C 97 % 1035,8 hPa 0,0 l/m 0 min 0 min 0 W/m 3,2 km/h (1 Bft) 82,98 %
05.02.2023 04:42 6,5 C 5,6 C 3,3 C 97 % 1035,9 hPa 0,0 l/m 0 min 0 min 0 W/m 3,2 km/h (1 Bft) 87,23 %
05.02.2023 04:40 6,5 C 5,6 C 3,3 C 97 % 1035,9 hPa 0,0 l/m 0 min 0 min 0 W/m 3,2 km/h (1 Bft) 76,60 %
05.02.2023 04:38 6,5 C 5,6 C 3,3 C 97 % 1035,9 hPa 0,0 l/m 0 min 0 min 0 W/m 3,2 km/h (1 Bft) 72,34 %
05.02.2023 04:36 6,5 C 5,6 C 2,8 C 97 % 1036,0 hPa 0,0 l/m 0 min 0 min 0 W/m 6,4 km/h (2 Bft) 86,96 %
05.02.2023 04:34 6,5 C 5,6 C 2,8 C 97 % 1036,0 hPa 0,0 l/m 0 min 0 min 0 W/m 3,2 km/h (1 Bft) 87,23 %
05.02.2023 04:32 6,5 C 5,6 C 2,8 C 97 % 1035,9 hPa 0,0 l/m 0 min 0 min 0 W/m 3,2 km/h (1 Bft) 89,36 %
05.02.2023 04:30 6,4 C 5,6 C 2,8 C 97 % 1035,9 hPa 0,0 l/m 0 min 0 min 0 W/m 3,2 km/h (1 Bft) 97,87 %
05.02.2023 04:28 6,4 C 5,6 C 2,8 C 97 % 1035,9 hPa 0,0 l/m 0 min 0 min 0 W/m 3,2 km/h (1 Bft) 100,00 %
05.02.2023 04:26 6,4 C 5,6 C 2,8 C 97 % 1036,0 hPa 0,0 l/m 0 min 0 min 0 W/m 6,4 km/h (2 Bft) 100,00 %
05.02.2023 04:24 6,4 C 5,6 C 2,8 C 97 % 1036,0 hPa 0,0 l/m 0 min 0 min 0 W/m 3,2 km/h (1 Bft) 95,65 %
05.02.2023 04:22 6,4 C 5,6 C 2,8 C 97 % 1035,9 hPa 0,0 l/m 0 min 0 min 0 W/m 3,2 km/h (1 Bft) 100,00 %
05.02.2023 04:20 6,4 C 5,6 C 2,8 C 97 % 1036,0 hPa 0,0 l/m 0 min 0 min 0 W/m 3,2 km/h (1 Bft) 100,00 %
05.02.2023 04:18 6,4 C 5,6 C 2,8 C 97 % 1036,0 hPa 0,0 l/m 0 min 0 min 0 W/m 3,2 km/h (1 Bft) 91,53 %
05.02.2023 04:16 6,4 C 5,6 C 2,8 C 97 % 1036,1 hPa 0,0 l/m 0 min 0 min 0 W/m 3,2 km/h (1 Bft) 100,00 %
05.02.2023 04:14 6,4 C 5,6 C 2,8 C 97 % 1036,2 hPa 0,0 l/m 0 min 0 min 0 W/m 3,2 km/h (1 Bft) 95,74 %
05.02.2023 04:12 6,4 C 5,6 C 2,8 C 97 % 1036,1 hPa 0,0 l/m 0 min 0 min 0 W/m 3,2 km/h (1 Bft) 89,13 %
05.02.2023 04:10 6,4 C 5,6 C 2,8 C 97 % 1036,1 hPa 0,0 l/m 0 min 0 min 0 W/m 3,2 km/h (1 Bft) 100,00 %
05.02.2023 04:08 6,3 C 5,6 C 2,8 C 97 % 1036,2 hPa 0,0 l/m 0 min 0 min 0 W/m 3,2 km/h (1 Bft) 95,65 %
05.02.2023 04:06 6,3 C 5,6 C 2,8 C 97 % 1036,2 hPa 0,0 l/m 0 min 0 min 0 W/m 3,2 km/h (1 Bft) 93,62 %
05.02.2023 04:04 6,3 C 5,6 C 2,8 C 97 % 1036,2 hPa 0,0 l/m 0 min 0 min 0 W/m 3,2 km/h (1 Bft) 95,74 %
05.02.2023 04:02 6,3 C 5,6 C 2,8 C 97 % 1036,3 hPa 0,0 l/m 0 min 0 min 0 W/m 6,4 km/h (2 Bft) 87,10 %
05.02.2023 04:00 6,3 C 5,6 C 2,8 C 97 % 1036,3 hPa 0,0 l/m 0 min 0 min 0 W/m 3,2 km/h (1 Bft) 82,86 %
05.02.2023 03:58 6,3 C 5,6 C 2,8 C 97 % 1036,4 hPa 0,0 l/m 0 min 0 min 0 W/m 0,0 km/h (0 Bft) 94,83 %
05.02.2023 03:56 6,3 C 5,6 C 2,8 C 97 % 1036,4 hPa 0,0 l/m 0 min 0 min 0 W/m 3,2 km/h (1 Bft) 94,44 %
05.02.2023 03:54 6,3 C 5,6 C 2,8 C 97 % 1036,3 hPa 0,0 l/m 0 min 0 min 0 W/m 3,2 km/h (1 Bft) 93,62 %
05.02.2023 03:52 6,3 C 5,6 C 2,8 C 97 % 1036,4 hPa 0,0 l/m 0 min 0 min 0 W/m 6,4 km/h (2 Bft) 96,55 %
05.02.2023 03:50 6,3 C 5,6 C 2,8 C 97 % 1036,5 hPa 0,0 l/m 0 min 0 min 0 W/m 3,2 km/h (1 Bft) 91,43 %
05.02.2023 03:48 6,3 C 5,6 C 2,8 C 97 % 1036,5 hPa 0,0 l/m 0 min 0 min 0 W/m 6,4 km/h (2 Bft) 95,74 %
05.02.2023 03:46 6,3 C 5,6 C 2,8 C 96 % 1036,5 hPa 0,0 l/m 0 min 0 min 0 W/m 0,0 km/h (0 Bft) 93,22 %
05.02.2023 03:44 6,3 C 5,6 C 2,8 C 96 % 1036,5 hPa 0,0 l/m 0 min 0 min 0 W/m 0,0 km/h (0 Bft) 97,14 %
05.02.2023 03:42 6,3 C 5,6 C 2,8 C 96 % 1036,5 hPa 0,0 l/m 0 min 0 min 0 W/m 3,2 km/h (1 Bft) 95,74 %
05.02.2023 03:40 6,3 C 5,6 C 2,8 C 96 % 1036,5 hPa 0,0 l/m 0 min 0 min 0 W/m 6,4 km/h (2 Bft) 95,74 %
05.02.2023 03:38 6,3 C 5,6 C 2,8 C 96 % 1036,5 hPa 0,0 l/m 0 min 0 min 0 W/m 3,2 km/h (1 Bft) 93,88 %
05.02.2023 03:36 6,3 C 5,6 C 2,8 C 96 % 1036,6 hPa 0,0 l/m 0 min 0 min 0 W/m 0,0 km/h (0 Bft) 95,74 %
05.02.2023 03:34 6,3 C 5,6 C 2,8 C 96 % 1036,6 hPa 0,0 l/m 0 min 0 min 0 W/m 0,0 km/h (0 Bft) 97,87 %
05.02.2023 03:32 6,3 C 5,6 C 2,8 C 96 % 1036,5 hPa 0,0 l/m 0 min 0 min 0 W/m 3,2 km/h (1 Bft) 97,87 %
05.02.2023 03:30 6,2 C 5,6 C 2,8 C 96 % 1036,6 hPa 0,0 l/m 0 min 0 min 0 W/m 0,0 km/h (0 Bft) 95,74 %
05.02.2023 03:28 6,2 C 5,6 C 2,8 C 96 % 1036,6 hPa 0,0 l/m 0 min 0 min 0 W/m 0,0 km/h (0 Bft) 89,36 %
05.02.2023 03:26 6,2 C 5,6 C 2,8 C 96 % 1036,6 hPa 0,0 l/m 0 min 0 min 0 W/m 3,2 km/h (1 Bft) 93,48 %
05.02.2023 03:24 6,2 C 5,6 C 2,8 C 96 % 1036,6 hPa 0,0 l/m 0 min 0 min 0 W/m 3,2 km/h (1 Bft) 95,74 %
05.02.2023 03:22 6,2 C 5,6 C 2,8 C 96 % 1036,6 hPa 0,0 l/m 0 min 0 min 0 W/m 3,2 km/h (1 Bft) 93,62 %
05.02.2023 03:20 6,2 C 5,6 C 2,8 C 96 % 1036,5 hPa 0,0 l/m 0 min 0 min 0 W/m 0,0 km/h (0 Bft) 93,62 %
05.02.2023 03:18 6,2 C 5,6 C 2,2 C 96 % 1036,6 hPa 0,0 l/m 0 min 0 min 0 W/m 0,0 km/h (0 Bft) 93,62 %
05.02.2023 03:16 6,2 C 5,6 C 2,2 C 96 % 1036,6 hPa 0,0 l/m 0 min 0 min 0 W/m 0,0 km/h (0 Bft) 95,74 %
05.02.2023 03:14 6,2 C 5,6 C 2,2 C 96 % 1036,5 hPa 0,0 l/m 0 min 0 min 0 W/m 0,0 km/h (0 Bft) 93,48 %
05.02.2023 03:12 6,2 C 5,6 C 2,2 C 96 % 1036,6 hPa 0,0 l/m 0 min 0 min 0 W/m 0,0 km/h (0 Bft) 95,74 %
05.02.2023 03:10 6,2 C 5,6 C 2,2 C 96 % 1036,5 hPa 0,0 l/m 0 min 0 min 0 W/m 0,0 km/h (0 Bft) 97,87 %
05.02.2023 03:08 6,2 C 5,6 C 2,2 C 96 % 1036,4 hPa 0,0 l/m 0 min 0 min 0 W/m 0,0 km/h (0 Bft) 100,00 %
05.02.2023 03:06 6,2 C 5,6 C 2,2 C 96 % 1036,4 hPa 0,0 l/m 0 min 0 min 0 W/m 0,0 km/h (0 Bft) 96,61 %
05.02.2023 03:04 6,2 C 5,6 C 2,2 C 96 % 1036,3 hPa 0,0 l/m 0 min 0 min 0 W/m 0,0 km/h (0 Bft) 97,87 %
05.02.2023 03:02 6,2 C 5,6 C 2,2 C 96 % 1036,3 hPa 0,0 l/m 0 min 0 min 0 W/m 0,0 km/h (0 Bft) 95,74 %
05.02.2023 03:00 6,2 C 5,6 C 2,2 C 96 % 1036,4 hPa 0,0 l/m 0 min 0 min 0 W/m 0,0 km/h (0 Bft) 95,65 %
05.02.2023 02:58 6,2 C 5,6 C 2,2 C 96 % 1036,4 hPa 0,0 l/m 0 min 0 min 0 W/m 0,0 km/h (0 Bft) 97,87 %
05.02.2023 02:56 6,2 C 5,6 C 2,2 C 96 % 1036,4 hPa 0,0 l/m 0 min 0 min 0 W/m 0,0 km/h (0 Bft) 97,87 %
05.02.2023 02:54 6,2 C 5,6 C 2,2 C 96 % 1036,5 hPa 0,0 l/m 0 min 0 min 0 W/m 0,0 km/h (0 Bft) 97,87 %
05.02.2023 02:52 6,2 C 5,6 C 2,2 C 96 % 1036,6 hPa 0,0 l/m 0 min 0 min 0 W/m 0,0 km/h (0 Bft) 97,87 %
05.02.2023 02:50 6,2 C 5,6 C 2,2 C 96 % 1036,5 hPa 0,0 l/m 0 min 0 min 0 W/m 0,0 km/h (0 Bft) 97,87 %
05.02.2023 02:48 6,2 C 5,6 C 2,2 C 96 % 1036,5 hPa 0,0 l/m 0 min 0 min 0 W/m 0,0 km/h (0 Bft) 95,65 %
05.02.2023 02:46 6,3 C 5,6 C 2,2 C 96 % 1036,4 hPa 0,0 l/m 0 min 0 min 0 W/m 0,0 km/h (0 Bft) 97,87 %
05.02.2023 02:44 6,2 C 5,6 C 2,2 C 96 % 1036,5 hPa 0,0 l/m 0 min 0 min 0 W/m 0,0 km/h (0 Bft) 100,00 %
05.02.2023 02:42 6,3 C 5,6 C 2,2 C 96 % 1036,4 hPa 0,0 l/m 0 min 0 min 0 W/m 0,0 km/h (0 Bft) 100,00 %
05.02.2023 02:40 6,3 C 5,6 C 2,2 C 96 % 1036,5 hPa 0,0 l/m 0 min 0 min 0 W/m 0,0 km/h (0 Bft) 97,87 %
05.02.2023 02:38 6,3 C 5,6 C 2,2 C 96 % 1036,5 hPa 0,0 l/m 0 min 0 min 0 W/m 0,0 km/h (0 Bft) 97,87 %
05.02.2023 02:36 6,3 C 5,6 C 2,2 C 96 % 1036,5 hPa 0,0 l/m 0 min 0 min 0 W/m 0,0 km/h (0 Bft) 100,00 %
05.02.2023 02:34 6,3 C 5,6 C 2,2 C 96 % 1036,5 hPa 0,0 l/m 0 min 0 min 0 W/m 0,0 km/h (0 Bft) 95,74 %
05.02.2023 02:32 6,3 C 5,6 C 2,2 C 96 % 1036,5 hPa 0,0 l/m 0 min 0 min 0 W/m 0,0 km/h (0 Bft) 100,00 %
05.02.2023 02:30 6,3 C 5,6 C 2,2 C 96 % 1036,6 hPa 0,0 l/m 0 min 0 min 0 W/m 0,0 km/h (0 Bft) 97,87 %
05.02.2023 02:28 6,3 C 5,6 C 2,2 C 96 % 1036,6 hPa 0,0 l/m 0 min 0 min 0 W/m 0,0 km/h (0 Bft) 97,87 %
05.02.2023 02:26 6,4 C 5,6 C 2,2 C 96 % 1036,5 hPa 0,0 l/m 0 min 0 min 0 W/m 0,0 km/h (0 Bft) 97,87 %
05.02.2023 02:24 6,3 C 5,6 C 2,2 C 96 % 1036,4 hPa 0,0 l/m 0 min 0 min 0 W/m 0,0 km/h (0 Bft) 95,65 %
05.02.2023 02:22 6,4 C 5,6 C 2,2 C 96 % 1036,4 hPa 0,0 l/m 0 min 0 min 0 W/m 0,0 km/h (0 Bft) 100,00 %
05.02.2023 02:20 6,4 C 5,6 C 2,2 C 96 % 1036,3 hPa 0,0 l/m 0 min 0 min 0 W/m 0,0 km/h (0 Bft) 100,00 %
05.02.2023 02:18 6,4 C 5,6 C 2,2 C 96 % 1036,3 hPa 0,0 l/m 0 min 0 min 0 W/m 0,0 km/h (0 Bft) 100,00 %
05.02.2023 02:16 6,4 C 5,6 C 2,2 C 96 % 1036,4 hPa 0,0 l/m 0 min 0 min 0 W/m 3,2 km/h (1 Bft) 97,87 %
05.02.2023 02:14 6,4 C 5,6 C 2,2 C 96 % 1036,5 hPa 0,0 l/m 0 min 0 min 0 W/m 0,0 km/h (0 Bft) 85,11 %
05.02.2023 02:12 6,4 C 5,6 C 2,2 C 96 % 1036,5 hPa 0,0 l/m 0 min 0 min 0 W/m 0,0 km/h (0 Bft) 80,85 %
05.02.2023 02:10 6,4 C 5,6 C 2,2 C 95 % 1036,6 hPa 0,0 l/m 0 min 0 min 0 W/m 0,0 km/h (0 Bft) 67,39 %
05.02.2023 02:08 6,5 C 5,6 C 2,2 C 95 % 1036,6 hPa 0,0 l/m 0 min 0 min 0 W/m 0,0 km/h (0 Bft) 47,22 %
05.02.2023 02:06 6,5 C 5,6 C 2,2 C 95 % 1036,6 hPa 0,0 l/m 0 min 0 min 0 W/m 3,2 km/h (1 Bft) 53,45 %
05.02.2023 02:04 6,5 C 5,6 C 2,2 C 95 % 1036,6 hPa 0,0 l/m 0 min 0 min 0 W/m 0,0 km/h (0 Bft) 85,11 %
05.02.2023 02:02 6,5 C 5,6 C 2,2 C 95 % 1036,7 hPa 0,0 l/m 0 min 0 min 0 W/m 0,0 km/h (0 Bft) 89,36 %
05.02.2023 02:00 6,5 C 5,6 C 2,2 C 95 % 1036,7 hPa 0,0 l/m 0 min 0 min 0 W/m 0,0 km/h (0 Bft) 68,09 %
05.02.2023 01:58 6,5 C 5,6 C 2,8 C 95 % 1036,6 hPa 0,0 l/m 0 min 0 min 0 W/m 0,0 km/h (0 Bft) 91,30 %
05.02.2023 01:56 6,5 C 5,6 C 2,8 C 95 % 1036,6 hPa 0,0 l/m 0 min 0 min 0 W/m 0,0 km/h (0 Bft) 97,87 %
05.02.2023 01:54 6,5 C 5,6 C 2,8 C 95 % 1036,7 hPa 0,0 l/m 0 min 0 min 0 W/m 3,2 km/h (1 Bft) 97,87 %
05.02.2023 01:52 6,5 C 5,6 C 2,8 C 95 % 1036,7 hPa 0,0 l/m 0 min 0 min 0 W/m 3,2 km/h (1 Bft) 91,49 %
05.02.2023 01:50 6,5 C 5,6 C 2,8 C 95 % 1036,7 hPa 0,0 l/m 0 min 0 min 0 W/m 0,0 km/h (0 Bft) 97,87 %
05.02.2023 01:48 6,6 C 5,6 C 2,8 C 95 % 1036,7 hPa 0,0 l/m 0 min 0 min 0 W/m 0,0 km/h (0 Bft) 100,00 %
05.02.2023 01:46 6,6 C 5,6 C 2,8 C 95 % 1036,7 hPa 0,0 l/m 0 min 0 min 0 W/m 0,0 km/h (0 Bft) 97,87 %
05.02.2023 01:44 6,6 C 5,6 C 2,8 C 95 % 1036,7 hPa 0,0 l/m 0 min 0 min 0 W/m 3,2 km/h (1 Bft) 97,83 %
05.02.2023 01:42 6,6 C 5,6 C 2,8 C 95 % 1036,8 hPa 0,0 l/m 0 min 0 min 0 W/m 3,2 km/h (1 Bft) 97,87 %
05.02.2023 01:40 6,6 C 5,6 C 2,8 C 95 % 1036,8 hPa 0,0 l/m 0 min 0 min 0 W/m 0,0 km/h (0 Bft) 97,87 %
05.02.2023 01:38 6,6 C 5,6 C 2,8 C 95 % 1036,8 hPa 0,0 l/m 0 min 0 min 0 W/m 3,2 km/h (1 Bft) 95,74 %
05.02.2023 01:36 6,6 C 5,6 C 2,8 C 95 % 1036,8 hPa 0,0 l/m 0 min 0 min 0 W/m 3,2 km/h (1 Bft) 93,62 %
05.02.2023 01:34 6,6 C 6,1 C 2,8 C 95 % 1036,9 hPa 0,0 l/m 0 min 0 min 0 W/m 6,4 km/h (2 Bft) 97,87 %
05.02.2023 01:32 6,6 C 6,1 C 2,8 C 95 % 1036,9 hPa 0,0 l/m 0 min 2 min 0 W/m 3,2 km/h (1 Bft) 100,00 %
05.02.2023 01:30 6,6 C 6,1 C 2,8 C 95 % 1036,9 hPa 0,2 l/m 0 min 2 min 0 W/m 3,2 km/h (1 Bft) 95,74 %
05.02.2023 01:28 6,6 C 6,1 C 2,8 C 95 % 1036,8 hPa 0,0 l/m 0 min 2 min 0 W/m 3,2 km/h (1 Bft) 100,00 %
05.02.2023 01:26 6,6 C 6,1 C 2,8 C 95 % 1036,9 hPa 0,0 l/m 0 min 2 min 0 W/m 6,4 km/h (2 Bft) 95,74 %
05.02.2023 01:24 6,5 C 6,1 C 2,8 C 95 % 1036,9 hPa 0,0 l/m 0 min 2 min 0 W/m 6,4 km/h (2 Bft) 100,00 %
05.02.2023 01:22 6,5 C 6,1 C 2,8 C 95 % 1037,0 hPa 0,0 l/m 0 min 0 min 0 W/m 3,2 km/h (1 Bft) 93,62 %
05.02.2023 01:20 6,5 C 6,1 C 2,8 C 95 % 1037,0 hPa 0,0 l/m 0 min 0 min 0 W/m 6,4 km/h (2 Bft) 100,00 %
05.02.2023 01:18 6,5 C 5,6 C 2,8 C 95 % 1036,9 hPa 0,0 l/m 0 min 0 min 0 W/m 6,4 km/h (2 Bft) 100,00 %
05.02.2023 01:16 6,5 C 5,6 C 2,8 C 95 % 1036,9 hPa 0,0 l/m 0 min 0 min 0 W/m 6,4 km/h (2 Bft) 100,00 %
05.02.2023 01:14 6,5 C 5,6 C 2,8 C 95 % 1037,1 hPa 0,0 l/m 0 min 0 min 0 W/m 6,4 km/h (2 Bft) 100,00 %
05.02.2023 01:12 6,5 C 5,6 C 2,8 C 95 % 1037,2 hPa 0,0 l/m 0 min 0 min 0 W/m 3,2 km/h (1 Bft) 100,00 %
05.02.2023 01:10 6,5 C 5,6 C 2,8 C 95 % 1037,3 hPa 0,0 l/m 0 min 0 min 0 W/m 3,2 km/h (1 Bft) 97,87 %
05.02.2023 01:08 6,5 C 5,6 C 2,8 C 95 % 1037,3 hPa 0,0 l/m 0 min 0 min 0 W/m 3,2 km/h (1 Bft) 100,00 %
05.02.2023 01:06 6,5 C 5,6 C 2,8 C 95 % 1037,4 hPa 0,0 l/m 0 min 0 min 0 W/m 0,0 km/h (0 Bft) 100,00 %
05.02.2023 01:04 6,6 C 5,6 C 2,8 C 95 % 1037,5 hPa 0,0 l/m 0 min 0 min 0 W/m 0,0 km/h (0 Bft) 97,87 %
05.02.2023 01:02 6,6 C 5,6 C 2,8 C 95 % 1037,6 hPa 0,0 l/m 0 min 0 min 0 W/m 3,2 km/h (1 Bft) 97,87 %
05.02.2023 01:00 6,6 C 5,6 C 2,8 C 95 % 1037,7 hPa 0,0 l/m 0 min 0 min 0 W/m 0,0 km/h (0 Bft) 93,62 %
05.02.2023 00:58 6,6 C 5,6 C 2,8 C 95 % 1037,7 hPa 0,0 l/m 0 min 0 min 0 W/m 3,2 km/h (1 Bft) 97,87 %
05.02.2023 00:56 6,6 C 5,6 C 2,8 C 94 % 1037,7 hPa 0,0 l/m 0 min 0 min 0 W/m 0,0 km/h (0 Bft) 93,48 %
05.02.2023 00:54 6,6 C 5,6 C 2,8 C 94 % 1037,7 hPa 0,0 l/m 0 min 0 min 0 W/m 3,2 km/h (1 Bft) 93,62 %
05.02.2023 00:52 6,6 C 5,6 C 2,2 C 94 % 1037,7 hPa 0,0 l/m 0 min 0 min 0 W/m 0,0 km/h (0 Bft) 91,49 %
05.02.2023 00:50 6,6 C 5,6 C 2,8 C 94 % 1037,9 hPa 0,0 l/m 0 min 0 min 0 W/m 0,0 km/h (0 Bft) 89,36 %
05.02.2023 00:48 6,6 C 5,6 C 2,8 C 94 % 1037,9 hPa 0,0 l/m 0 min 0 min 0 W/m 0,0 km/h (0 Bft) 93,62 %
05.02.2023 00:46 6,6 C 5,6 C 2,2 C 94 % 1037,8 hPa 0,0 l/m 0 min 0 min 0 W/m 0,0 km/h (0 Bft) 94,74 %
05.02.2023 00:44 6,6 C 5,6 C 2,2 C 94 % 1037,8 hPa 0,0 l/m 0 min 0 min 0 W/m 3,2 km/h (1 Bft) 93,62 %
05.02.2023 00:42 6,6 C 5,6 C 2,2 C 94 % 1037,8 hPa 0,0 l/m 0 min 0 min 0 W/m 0,0 km/h (0 Bft) 95,74 %
05.02.2023 00:40 6,6 C 5,6 C 2,2 C 94 % 1037,8 hPa 0,0 l/m 0 min 0 min 0 W/m 0,0 km/h (0 Bft) 95,74 %
05.02.2023 00:38 6,6 C 5,6 C 2,2 C 94 % 1037,8 hPa 0,0 l/m 0 min 0 min 0 W/m 0,0 km/h (0 Bft) 95,65 %
05.02.2023 00:36 6,6 C 5,6 C 2,2 C 94 % 1037,8 hPa 0,0 l/m 0 min 0 min 0 W/m 0,0 km/h (0 Bft) 93,62 %
05.02.2023 00:34 6,6 C 5,6 C 2,2 C 94 % 1037,9 hPa 0,0 l/m 0 min 0 min 0 W/m 0,0 km/h (0 Bft) 95,74 %
05.02.2023 00:32 6,6 C 5,6 C 2,2 C 94 % 1037,9 hPa 0,0 l/m 0 min 0 min 0 W/m 0,0 km/h (0 Bft) 91,49 %
05.02.2023 00:30 6,5 C 5,6 C 2,2 C 94 % 1038,0 hPa 0,0 l/m 0 min 0 min 0 W/m 0,0 km/h (0 Bft) 89,36 %
05.02.2023 00:28 6,5 C 5,6 C 2,2 C 94 % 1037,9 hPa 0,0 l/m 0 min 0 min 0 W/m 0,0 km/h (0 Bft) 89,36 %
05.02.2023 00:26 6,5 C 5,6 C 2,2 C 94 % 1037,8 hPa 0,0 l/m 0 min 0 min 0 W/m 0,0 km/h (0 Bft) 93,48 %
05.02.2023 00:24 6,5 C 5,6 C 2,2 C 94 % 1037,9 hPa 0,0 l/m 0 min 0 min 0 W/m 0,0 km/h (0 Bft) 93,62 %
05.02.2023 00:22 6,5 C 5,6 C 2,2 C 93 % 1037,9 hPa 0,0 l/m 0 min 0 min 0 W/m 0,0 km/h (0 Bft) 95,74 %
05.02.2023 00:20 6,5 C 5,6 C 2,2 C 93 % 1037,9 hPa 0,0 l/m 0 min 0 min 0 W/m 0,0 km/h (0 Bft) 93,62 %
05.02.2023 00:18 6,5 C 5,6 C 2,2 C 93 % 1037,9 hPa 0,0 l/m 0 min 0 min 0 W/m 0,0 km/h (0 Bft) 93,62 %
05.02.2023 00:16 6,5 C 5,6 C 2,2 C 93 % 1037,8 hPa 0,0 l/m 0 min 2 min 0 W/m 0,0 km/h (0 Bft) 93,62 %
05.02.2023 00:14 6,5 C 5,6 C 2,2 C 93 % 1037,9 hPa 0,0 l/m 0 min 0 min 0 W/m 0,0 km/h (0 Bft) 93,48 %
05.02.2023 00:12 6,5 C 5,6 C 2,2 C 93 % 1037,9 hPa 0,0 l/m 0 min 0 min 0 W/m 0,0 km/h (0 Bft) 93,62 %
05.02.2023 00:10 6,5 C 5,6 C 2,2 C 93 % 1037,8 hPa 0,0 l/m 0 min 0 min 0 W/m 0,0 km/h (0 Bft) 89,36 %
05.02.2023 00:08 6,5 C 5,6 C 2,2 C 93 % 1037,9 hPa 0,0 l/m 0 min 4 min 0 W/m 3,2 km/h (1 Bft) 96,88 %
05.02.2023 00:04 6,6 C 5,6 C 2,2 C 93 % 1037,8 hPa 0,0 l/m 0 min 2 min 0 W/m 3,2 km/h (1 Bft) 95,74 %
05.02.2023 00:02 6,6 C 5,6 C 2,2 C 93 % 1037,7 hPa 0,0 l/m 0 min 2 min 0 W/m 0,0 km/h (0 Bft) 90,91 %
05.02.2023 00:00 6,6 C 5,6 C 2,2 C 93 % 1037,6 hPa 0,0 l/m 0 min 2 min 0 W/m 0,0 km/h (0 Bft) 95,74 %
04.02.2023 23:58 6,6 C 5,6 C 2,2 C 93 % 1037,7 hPa 0,0 l/m 0 min 2 min 0 W/m 0,0 km/h (0 Bft) 97,87 %
04.02.2023 23:56 6,6 C 5,6 C 2,2 C 93 % 1037,6 hPa 0,0 l/m 0 min 2 min 0 W/m 0,0 km/h (0 Bft) 91,49 %
04.02.2023 23:54 6,5 C 5,6 C 2,2 C 93 % 1037,6 hPa 0,0 l/m 0 min 0 min 0 W/m 0,0 km/h (0 Bft) 93,62 %
04.02.2023 23:52 6,5 C 5,6 C 2,2 C 93 % 1037,6 hPa 0,0 l/m 0 min 0 min 0 W/m 0,0 km/h (0 Bft) 95,74 %
04.02.2023 23:50 6,5 C 5,6 C 2,2 C 93 % 1037,6 hPa 0,0 l/m 0 min 0 min 0 W/m 0,0 km/h (0 Bft) 95,74 %
04.02.2023 23:48 6,5 C 5,6 C 2,2 C 93 % 1037,7 hPa 0,0 l/m 0 min 2 min 0 W/m 0,0 km/h (0 Bft) 97,83 %
04.02.2023 23:46 6,5 C 5,6 C 2,2 C 93 % 1037,6 hPa 0,0 l/m 0 min 0 min 0 W/m 0,0 km/h (0 Bft) 100,00 %
04.02.2023 23:44 6,4 C 5,6 C 2,2 C 93 % 1037,5 hPa 0,0 l/m 0 min 0 min 0 W/m 0,0 km/h (0 Bft) 100,00 %
04.02.2023 23:42 6,4 C 5,6 C 2,2 C 93 % 1037,5 hPa 0,2 l/m 0 min 0 min 0 W/m 0,0 km/h (0 Bft) 82,98 %
04.02.2023 23:40 6,4 C 5,6 C 2,2 C 93 % 1037,5 hPa 0,0 l/m 0 min 2 min 0 W/m 0,0 km/h (0 Bft) 59,57 %
04.02.2023 23:38 6,4 C 5,6 C 2,2 C 93 % 1037,5 hPa 0,0 l/m 0 min 2 min 0 W/m 0,0 km/h (0 Bft) 46,81 %
04.02.2023 23:36 6,4 C 6,1 C 2,2 C 92 % 1037,5 hPa 0,0 l/m 0 min 2 min 0 W/m 0,0 km/h (0 Bft) 47,83 %
04.02.2023 23:34 6,4 C 6,1 C 2,2 C 92 % 1037,4 hPa 0,0 l/m 0 min 2 min 0 W/m 0,0 km/h (0 Bft) 55,32 %
04.02.2023 23:32 6,4 C 6,1 C 2,2 C 92 % 1037,4 hPa 0,0 l/m 0 min 0 min 0 W/m 0,0 km/h (0 Bft) 93,62 %
04.02.2023 23:30 6,4 C 6,1 C 2,2 C 92 % 1037,4 hPa 0,0 l/m 0 min 0 min 0 W/m 0,0 km/h (0 Bft) 97,87 %
04.02.2023 23:28 6,4 C 6,1 C 2,2 C 92 % 1037,4 hPa 0,0 l/m 0 min 0 min 0 W/m 0,0 km/h (0 Bft) 100,00 %
04.02.2023 23:26 6,4 C 6,1 C 2,2 C 92 % 1037,5 hPa 0,0 l/m 0 min 2 min 0 W/m 0,0 km/h (0 Bft) 97,87 %
04.02.2023 23:24 6,3 C 5,6 C 2,2 C 92 % 1037,6 hPa 0,0 l/m 0 min 0 min 0 W/m 0,0 km/h (0 Bft) 100,00 %
04.02.2023 23:22 6,3 C 5,6 C 2,2 C 92 % 1037,7 hPa 0,0 l/m 0 min 2 min 0 W/m 0,0 km/h (0 Bft) 97,87 %
04.02.2023 23:20 6,3 C 5,6 C 2,2 C 92 % 1037,6 hPa 0,0 l/m 0 min 2 min 0 W/m 0,0 km/h (0 Bft) 97,87 %
04.02.2023 23:18 6,3 C 5,6 C 2,2 C 92 % 1037,6 hPa 0,0 l/m 0 min 0 min 0 W/m 0,0 km/h (0 Bft) 95,74 %
04.02.2023 23:16 6,3 C 5,6 C 2,2 C 92 % 1037,7 hPa 0,0 l/m 0 min 2 min 0 W/m 0,0 km/h (0 Bft) 97,87 %
04.02.2023 23:14 6,3 C 5,6 C 2,2 C 92 % 1037,7 hPa 0,0 l/m 0 min 0 min 0 W/m 0,0 km/h (0 Bft) 97,87 %
04.02.2023 23:12 6,3 C 5,6 C 2,2 C 92 % 1037,7 hPa 0,0 l/m 0 min 0 min 0 W/m 0,0 km/h (0 Bft) 93,62 %
04.02.2023 23:10 6,3 C 5,6 C 2,2 C 92 % 1037,7 hPa 0,0 l/m 0 min 0 min 0 W/m 0,0 km/h (0 Bft) 97,83 %
04.02.2023 23:08 6,3 C 5,6 C 2,2 C 92 % 1037,7 hPa 0,0 l/m 0 min 0 min 0 W/m 0,0 km/h (0 Bft) 91,49 %
04.02.2023 23:06 6,3 C 5,6 C 2,2 C 92 % 1037,7 hPa 0,0 l/m 0 min 0 min 0 W/m 0,0 km/h (0 Bft) 81,48 %
04.02.2023 23:04 6,3 C 5,6 C 2,2 C 92 % 1037,8 hPa 0,0 l/m 0 min 0 min 0 W/m 0,0 km/h (0 Bft) 86,96 %
04.02.2023 23:02 6,3 C 5,6 C 2,2 C 92 % 1037,8 hPa 0,0 l/m 0 min 0 min 0 W/m 0,0 km/h (0 Bft) 91,49 %
04.02.2023 23:00 6,3 C 5,6 C 2,2 C 91 % 1037,8 hPa 0,0 l/m 0 min 0 min 0 W/m 0,0 km/h (0 Bft) 97,87 %
04.02.2023 22:58 6,3 C 5,6 C 2,2 C 91 % 1037,9 hPa 0,0 l/m 0 min 0 min 0 W/m 0,0 km/h (0 Bft) 100,00 %
04.02.2023 22:56 6,3 C 5,6 C 2,2 C 91 % 1037,9 hPa 0,0 l/m 0 min 0 min 0 W/m 0,0 km/h (0 Bft) 95,74 %
04.02.2023 22:54 6,3 C 5,6 C 2,2 C 91 % 1037,8 hPa 0,0 l/m 0 min 0 min 0 W/m 0,0 km/h (0 Bft) 91,49 %
04.02.2023 22:52 6,3 C 5,6 C 2,2 C 91 % 1037,8 hPa 0,0 l/m 0 min 0 min 0 W/m 0,0 km/h (0 Bft) 97,87 %
04.02.2023 22:50 6,3 C 5,6 C 2,2 C 91 % 1037,9 hPa 0,0 l/m 0 min 0 min 0 W/m 0,0 km/h (0 Bft) 97,83 %
04.02.2023 22:48 6,3 C 5,6 C 2,2 C 91 % 1037,8 hPa 0,0 l/m 0 min 0 min 0 W/m 0,0 km/h (0 Bft) 95,74 %
04.02.2023 22:46 6,3 C 5,6 C 2,2 C 91 % 1037,8 hPa 0,0 l/m 0 min 0 min 0 W/m 0,0 km/h (0 Bft) 95,74 %
04.02.2023 22:44 6,3 C 5,6 C 2,2 C 91 % 1037,7 hPa 0,0 l/m 0 min 0 min 0 W/m 0,0 km/h (0 Bft) 93,62 %
04.02.2023 22:42 6,3 C 5,6 C 2,2 C 91 % 1037,7 hPa 0,0 l/m 0 min 0 min 0 W/m 0,0 km/h (0 Bft) 93,62 %
04.02.2023 22:40 6,3 C 5,0 C 2,2 C 91 % 1037,8 hPa 0,0 l/m 0 min 0 min 0 W/m 0,0 km/h (0 Bft) 93,62 %
04.02.2023 22:38 6,3 C 5,0 C 2,2 C 91 % 1037,8 hPa 0,0 l/m 0 min 0 min 0 W/m 0,0 km/h (0 Bft) 93,48 %
04.02.2023 22:36 6,3 C 5,0 C 2,2 C 91 % 1037,8 hPa 0,0 l/m 0 min 0 min 0 W/m 0,0 km/h (0 Bft) 95,74 %
04.02.2023 22:34 6,3 C 5,0 C 2,2 C 91 % 1037,8 hPa 0,0 l/m 0 min 0 min 0 W/m 0,0 km/h (0 Bft) 95,74 %
04.02.2023 22:32 6,3 C 5,0 C 2,2 C 90 % 1037,8 hPa 0,0 l/m 0 min 0 min 0 W/m 0,0 km/h (0 Bft) 91,49 %
04.02.2023 22:30 6,3 C 5,0 C 1,7 C 90 % 1037,8 hPa 0,0 l/m 0 min 0 min 0 W/m 0,0 km/h (0 Bft) 93,62 %
04.02.2023 22:28 6,4 C 5,0 C 1,7 C 90 % 1037,8 hPa 0,0 l/m 0 min 0 min 0 W/m 0,0 km/h (0 Bft) 95,74 %
04.02.2023 22:26 6,4 C 5,0 C 1,7 C 90 % 1037,8 hPa 0,0 l/m 0 min 0 min 0 W/m 0,0 km/h (0 Bft) 91,30 %
04.02.2023 22:24 6,4 C 5,0 C 1,7 C 90 % 1037,8 hPa 0,0 l/m 0 min 0 min 0 W/m 0,0 km/h (0 Bft) 95,74 %
04.02.2023 22:22 6,4 C 5,0 C 1,7 C 90 % 1037,8 hPa 0,0 l/m 0 min 0 min 0 W/m 0,0 km/h (0 Bft) 93,62 %
04.02.2023 22:20 6,4 C 5,0 C 2,2 C 90 % 1037,7 hPa 0,0 l/m 0 min 0 min 0 W/m 0,0 km/h (0 Bft) 95,74 %
04.02.2023 22:18 6,4 C 5,6 C 2,2 C 90 % 1037,7 hPa 0,0 l/m 0 min 0 min 0 W/m 0,0 km/h (0 Bft) 95,74 %
04.02.2023 22:16 6,4 C 5,0 C 2,2 C 90 % 1037,6 hPa 0,0 l/m 0 min 0 min 0 W/m 0,0 km/h (0 Bft) 95,74 %
04.02.2023 22:14 6,4 C 5,0 C 2,2 C 90 % 1037,6 hPa 0,0 l/m 0 min 0 min 0 W/m 0,0 km/h (0 Bft) 95,74 %
04.02.2023 22:12 6,5 C 5,0 C 2,2 C 90 % 1037,6 hPa 0,0 l/m 0 min 0 min 0 W/m 0,0 km/h (0 Bft) 97,83 %
04.02.2023 22:10 6,5 C 5,0 C 2,2 C 90 % 1037,6 hPa 0,0 l/m 0 min 0 min 0 W/m 0,0 km/h (0 Bft) 97,87 %
04.02.2023 22:08 6,5 C 5,0 C 2,2 C 90 % 1037,6 hPa 0,0 l/m 0 min 0 min 0 W/m 0,0 km/h (0 Bft) 97,56 %
04.02.2023 22:06 6,5 C 5,0 C 2,2 C 90 % 1037,6 hPa 0,0 l/m 0 min 0 min 0 W/m 0,0 km/h (0 Bft) 98,11 %
04.02.2023 22:04 6,5 C 5,6 C 2,2 C 90 % 1037,7 hPa 0,0 l/m 0 min 0 min 0 W/m 0,0 km/h (0 Bft) 100,00 %
04.02.2023 22:02 6,5 C 5,6 C 2,2 C 90 % 1037,7 hPa 0,0 l/m 0 min 0 min 0 W/m 0,0 km/h (0 Bft) 91,49 %
04.02.2023 22:00 6,5 C 5,6 C 2,2 C 90 % 1037,7 hPa 0,0 l/m 0 min 0 min 0 W/m 0,0 km/h (0 Bft) 89,13 %
04.02.2023 21:58 6,5 C 5,6 C 2,2 C 89 % 1037,7 hPa 0,0 l/m 0 min 0 min 0 W/m 0,0 km/h (0 Bft) 91,49 %
04.02.2023 21:56 6,5 C 5,6 C 2,2 C 89 % 1037,7 hPa 0,0 l/m 0 min 0 min 0 W/m 0,0 km/h (0 Bft) 91,49 %
04.02.2023 21:54 6,5 C 5,6 C 2,2 C 89 % 1037,6 hPa 0,0 l/m 0 min 0 min 0 W/m 0,0 km/h (0 Bft) 91,49 %
04.02.2023 21:52 6,5 C 5,6 C 2,2 C 89 % 1037,7 hPa 0,0 l/m 0 min 0 min 0 W/m 0,0 km/h (0 Bft) 91,49 %
04.02.2023 21:50 6,6 C 5,6 C 2,2 C 89 % 1037,7 hPa 0,0 l/m 0 min 0 min 0 W/m 0,0 km/h (0 Bft) 97,87 %
04.02.2023 21:48 6,6 C 5,6 C 2,2 C 89 % 1037,7 hPa 0,0 l/m 0 min 0 min 0 W/m 0,0 km/h (0 Bft) 95,74 %
04.02.2023 21:46 6,6 C 5,6 C 2,2 C 89 % 1037,7 hPa 0,0 l/m 0 min 0 min 0 W/m 0,0 km/h (0 Bft) 97,83 %
04.02.2023 21:44 6,6 C 5,6 C 2,2 C 89 % 1037,7 hPa 0,0 l/m 0 min 0 min 0 W/m 0,0 km/h (0 Bft) 95,74 %
04.02.2023 21:42 6,6 C 5,6 C 2,2 C 89 % 1037,7 hPa 0,0 l/m 0 min 0 min 0 W/m 0,0 km/h (0 Bft) 93,62 %
04.02.2023 21:40 6,6 C 5,6 C 2,2 C 89 % 1037,7 hPa 0,0 l/m 0 min 0 min 0 W/m 0,0 km/h (0 Bft) 100,00 %
04.02.2023 21:38 6,6 C 5,6 C 2,2 C 89 % 1037,8 hPa 0,0 l/m 0 min 0 min 0 W/m 0,0 km/h (0 Bft) 100,00 %
04.02.2023 21:36 6,7 C 5,6 C 2,2 C 89 % 1037,8 hPa 0,0 l/m 0 min 0 min 0 W/m 0,0 km/h (0 Bft) 97,87 %
04.02.2023 21:34 6,7 C 5,6 C 2,2 C 89 % 1037,8 hPa 0,0 l/m 0 min 0 min 0 W/m 0,0 km/h (0 Bft) 91,30 %
04.02.2023 21:32 6,7 C 5,6 C 2,2 C 89 % 1037,7 hPa 0,0 l/m 0 min 0 min 0 W/m 0,0 km/h (0 Bft) 95,74 %
04.02.2023 21:30 6,7 C 5,6 C 2,2 C 89 % 1037,7 hPa 0,0 l/m 0 min 0 min 0 W/m 0,0 km/h (0 Bft) 95,74 %
04.02.2023 21:28 6,7 C 5,6 C 2,2 C 88 % 1037,8 hPa 0,0 l/m 0 min 0 min 0 W/m 0,0 km/h (0 Bft) 91,49 %
04.02.2023 21:26 6,7 C 5,6 C 2,2 C 88 % 1037,8 hPa 0,0 l/m 0 min 0 min 0 W/m 0,0 km/h (0 Bft) 93,62 %
04.02.2023 21:24 6,7 C 5,6 C 2,2 C 88 % 1037,9 hPa 0,0 l/m 0 min 0 min 0 W/m 0,0 km/h (0 Bft) 82,98 %
04.02.2023 21:22 6,7 C 5,6 C 2,2 C 88 % 1037,8 hPa 0,0 l/m 0 min 0 min 0 W/m 0,0 km/h (0 Bft) 80,85 %
04.02.2023 21:20 6,7 C 5,6 C 2,2 C 88 % 1037,8 hPa 0,0 l/m 0 min 0 min 0 W/m 0,0 km/h (0 Bft) 86,96 %
04.02.2023 21:18 6,8 C 5,6 C 2,2 C 88 % 1037,9 hPa 0,0 l/m 0 min 0 min 0 W/m 0,0 km/h (0 Bft) 76,60 %
04.02.2023 21:16 6,8 C 5,6 C 2,2 C 88 % 1037,9 hPa 0,0 l/m 0 min 0 min 0 W/m 0,0 km/h (0 Bft) 85,11 %
04.02.2023 21:14 6,8 C 5,6 C 2,2 C 88 % 1037,9 hPa 0,0 l/m 0 min 0 min 0 W/m 0,0 km/h (0 Bft) 48,94 %
04.02.2023 21:12 6,8 C 5,6 C 2,2 C 88 % 1037,9 hPa 0,0 l/m 0 min 0 min 0 W/m 0,0 km/h (0 Bft) 56,52 %
04.02.2023 21:10 6,8 C 5,6 C 2,2 C 88 % 1037,9 hPa 0,0 l/m 0 min 0 min 0 W/m 0,0 km/h (0 Bft) 93,62 %
04.02.2023 21:08 6,8 C 5,6 C 2,2 C 88 % 1037,9 hPa 0,0 l/m 0 min 0 min 0 W/m 0,0 km/h (0 Bft) 86,96 %
04.02.2023 21:06 6,9 C 5,0 C 2,2 C 88 % 1037,8 hPa 0,0 l/m 0 min 0 min 0 W/m 0,0 km/h (0 Bft) 95,74 %
04.02.2023 21:04 6,9 C 5,6 C 2,2 C 88 % 1037,8 hPa 0,0 l/m 0 min 0 min 0 W/m 0,0 km/h (0 Bft) 87,23 %
04.02.2023 21:02 6,9 C 5,6 C 2,2 C 88 % 1037,8 hPa 0,0 l/m 0 min 0 min 0 W/m 0,0 km/h (0 Bft) 57,45 %
04.02.2023 21:00 7,0 C 5,6 C 2,2 C 88 % 1037,7 hPa 0,0 l/m 0 min 0 min 0 W/m 0,0 km/h (0 Bft) 53,19 %
04.02.2023 20:58 7,0 C 5,6 C 2,2 C 88 % 1037,7 hPa 0,0 l/m 0 min 0 min 0 W/m 0,0 km/h (0 Bft) 57,45 %
04.02.2023 20:56 7,0 C 5,6 C 2,2 C 88 % 1037,7 hPa 0,0 l/m 0 min 0 min 0 W/m 0,0 km/h (0 Bft) 71,74 %
04.02.2023 20:54 7,1 C 5,6 C 2,2 C 88 % 1037,7 hPa 0,0 l/m 0 min 0 min 0 W/m 0,0 km/h (0 Bft) 65,96 %
04.02.2023 20:52 7,1 C 5,6 C 2,2 C 88 % 1037,7 hPa 0,0 l/m 0 min 0 min 0 W/m 0,0 km/h (0 Bft) 34,04 %
04.02.2023 20:50 7,1 C 5,6 C 2,2 C 88 % 1037,7 hPa 0,0 l/m 0 min 0 min 0 W/m 0,0 km/h (0 Bft) 29,79 %
04.02.2023 20:48 7,1 C 5,6 C 2,2 C 87 % 1037,8 hPa 0,0 l/m 0 min 0 min 0 W/m 0,0 km/h (0 Bft) 51,06 %
04.02.2023 20:46 7,1 C 5,6 C 2,2 C 87 % 1037,7 hPa 0,0 l/m 0 min 0 min 0 W/m 0,0 km/h (0 Bft) 72,34 %
04.02.2023 20:44 7,2 C 5,6 C 2,2 C 87 % 1037,7 hPa 0,0 l/m 0 min 0 min 0 W/m 0,0 km/h (0 Bft) 91,49 %
04.02.2023 20:42 7,2 C 5,6 C 2,2 C 87 % 1037,8 hPa 0,0 l/m 0 min 0 min 0 W/m 0,0 km/h (0 Bft) 61,36 %
04.02.2023 20:40 7,2 C 5,6 C 2,2 C 87 % 1037,7 hPa 0,0 l/m 0 min 0 min 0 W/m 0,0 km/h (0 Bft) 74,47 %
04.02.2023 20:38 7,2 C 5,6 C 2,2 C 87 % 1037,8 hPa 0,0 l/m 0 min 0 min 0 W/m 0,0 km/h (0 Bft) 93,62 %
04.02.2023 20:36 7,3 C 5,6 C 2,2 C 87 % 1037,8 hPa 0,0 l/m 0 min 0 min 0 W/m 0,0 km/h (0 Bft) 93,62 %
04.02.2023 20:34 7,3 C 5,6 C 2,2 C 87 % 1037,8 hPa 0,0 l/m 0 min 0 min 0 W/m 0,0 km/h (0 Bft) 93,62 %
04.02.2023 20:32 7,3 C 6,1 C 2,2 C 87 % 1037,8 hPa 0,0 l/m 0 min 0 min 0 W/m 0,0 km/h (0 Bft) 91,49 %
04.02.2023 20:30 7,3 C 6,1 C 2,2 C 86 % 1037,8 hPa 0,0 l/m 0 min 0 min 0 W/m 0,0 km/h (0 Bft) 95,65 %
04.02.2023 20:28 7,4 C 5,6 C 2,2 C 86 % 1037,7 hPa 0,0 l/m 0 min 0 min 0 W/m 0,0 km/h (0 Bft) 93,62 %
04.02.2023 20:26 7,4 C 5,6 C 2,2 C 86 % 1037,7 hPa 0,0 l/m 0 min 0 min 0 W/m 3,2 km/h (1 Bft) 97,87 %
04.02.2023 20:24 7,4 C 5,6 C 2,2 C 86 % 1037,7 hPa 0,0 l/m 0 min 0 min 0 W/m 3,2 km/h (1 Bft) 97,87 %
04.02.2023 20:22 7,4 C 5,6 C 2,2 C 86 % 1037,6 hPa 0,0 l/m 0 min 0 min 0 W/m 0,0 km/h (0 Bft) 97,87 %
04.02.2023 20:20 7,5 C 5,6 C 2,2 C 86 % 1037,7 hPa 0,0 l/m 0 min 0 min 0 W/m 0,0 km/h (0 Bft) 97,87 %
04.02.2023 20:18 7,5 C 5,6 C 2,2 C 86 % 1037,7 hPa 0,0 l/m 0 min 0 min 0 W/m 0,0 km/h (0 Bft) 97,83 %
04.02.2023 20:16 7,6 C 5,6 C 2,2 C 86 % 1037,6 hPa 0,0 l/m 0 min 0 min 0 W/m 0,0 km/h (0 Bft) 95,74 %
04.02.2023 20:14 7,6 C 5,6 C 2,2 C 86 % 1037,6 hPa 0,0 l/m 0 min 0 min 0 W/m 0,0 km/h (0 Bft) 97,87 %
04.02.2023 20:12 7,6 C 5,6 C 2,2 C 86 % 1037,6 hPa 0,0 l/m 0 min 0 min 0 W/m 0,0 km/h (0 Bft) 97,87 %
04.02.2023 20:10 7,7 C 5,6 C 2,2 C 86 % 1037,6 hPa 0,0 l/m 0 min 0 min 0 W/m 0,0 km/h (0 Bft) 97,87 %
04.02.2023 20:08 7,7 C 5,6 C 2,2 C 86 % 1037,6 hPa 0,0 l/m 0 min 0 min 0 W/m 0,0 km/h (0 Bft) 95,74 %
04.02.2023 20:06 7,7 C 5,6 C 2,2 C 86 % 1037,6 hPa 0,0 l/m 0 min 0 min 0 W/m 0,0 km/h (0 Bft) 97,87 %
04.02.2023 20:04 7,7 C 5,6 C 2,2 C 86 % 1037,7 hPa 0,0 l/m 0 min 0 min 0 W/m 0,0 km/h (0 Bft) 97,83 %
04.02.2023 20:02 7,8 C 5,6 C 2,2 C 86 % 1037,6 hPa 0,0 l/m 0 min 0 min 0 W/m 0,0 km/h (0 Bft) 97,87 %
04.02.2023 20:00 7,8 C 6,1 C 2,2 C 86 % 1037,6 hPa 0,0 l/m 0 min 0 min 0 W/m 0,0 km/h (0 Bft) 100,00 %
04.02.2023 19:58 7,8 C 6,1 C 2,2 C 86 % 1037,6 hPa 0,0 l/m 0 min 0 min 0 W/m 0,0 km/h (0 Bft) 100,00 %
04.02.2023 19:56 7,8 C 6,1 C 2,2 C 86 % 1037,7 hPa 0,0 l/m 0 min 0 min 0 W/m 0,0 km/h (0 Bft) 100,00 %
04.02.2023 19:54 7,8 C 6,1 C 2,2 C 86 % 1037,7 hPa 0,0 l/m 0 min 0 min 0 W/m 0,0 km/h (0 Bft) 95,74 %
04.02.2023 19:52 7,8 C 6,1 C 2,8 C 86 % 1037,8 hPa 0,0 l/m 0 min 0 min 0 W/m 0,0 km/h (0 Bft) 97,83 %
04.02.2023 19:50 7,9 C 6,1 C 2,8 C 86 % 1037,8 hPa 0,0 l/m 0 min 0 min 0 W/m 0,0 km/h (0 Bft) 97,87 %
04.02.2023 19:48 7,9 C 6,7 C 2,8 C 86 % 1037,8 hPa 0,0 l/m 0 min 0 min 0 W/m 0,0 km/h (0 Bft) 100,00 %
04.02.2023 19:46 7,9 C 6,7 C 2,8 C 86 % 1037,8 hPa 0,0 l/m 0 min 0 min 0 W/m 0,0 km/h (0 Bft) 100,00 %
04.02.2023 19:44 7,9 C 6,7 C 3,3 C 86 % 1037,7 hPa 0,0 l/m 0 min 0 min 0 W/m 0,0 km/h (0 Bft) 97,87 %
04.02.2023 19:42 7,9 C 6,7 C 3,3 C 86 % 1037,7 hPa 0,0 l/m 0 min 0 min 0 W/m 0,0 km/h (0 Bft) 100,00 %
04.02.2023 19:40 7,9 C 6,7 C 3,3 C 86 % 1037,7 hPa 0,0 l/m 0 min 0 min 0 W/m 0,0 km/h (0 Bft) 97,83 %
04.02.2023 19:38 7,9 C 7,2 C 3,3 C 86 % 1037,7 hPa 0,0 l/m 0 min 0 min 0 W/m 0,0 km/h (0 Bft) 95,74 %
04.02.2023 19:36 7,9 C 7,2 C 3,3 C 86 % 1037,7 hPa 0,0 l/m 0 min 0 min 0 W/m 0,0 km/h (0 Bft) 100,00 %
04.02.2023 19:34 7,9 C 7,2 C 3,3 C 86 % 1037,7 hPa 0,0 l/m 0 min 0 min 0 W/m 0,0 km/h (0 Bft) 100,00 %
04.02.2023 19:32 7,9 C 7,2 C 3,3 C 86 % 1037,7 hPa 0,0 l/m 0 min 0 min 0 W/m 0,0 km/h (0 Bft) 97,87 %
04.02.2023 19:30 7,9 C 7,2 C 3,3 C 86 % 1037,7 hPa 0,0 l/m 0 min 0 min 0 W/m 0,0 km/h (0 Bft) 100,00 %
04.02.2023 19:28 7,9 C 7,2 C 3,3 C 86 % 1037,8 hPa 0,0 l/m 0 min 0 min 0 W/m 0,0 km/h (0 Bft) 100,00 %
04.02.2023 19:26 7,9 C 7,2 C 3,3 C 86 % 1037,8 hPa 0,0 l/m 0 min 0 min 0 W/m 0,0 km/h (0 Bft) 100,00 %
04.02.2023 19:24 7,9 C 7,2 C 3,9 C 86 % 1037,8 hPa 0,0 l/m 0 min 0 min 0 W/m 0,0 km/h (0 Bft) 100,00 %
04.02.2023 19:22 7,9 C 7,2 C 3,9 C 86 % 1037,8 hPa 0,0 l/m 0 min 0 min 0 W/m 0,0 km/h (0 Bft) 97,87 %
04.02.2023 19:20 7,9 C 7,2 C 3,9 C 86 % 1037,8 hPa 0,0 l/m 0 min 0 min 0 W/m 0,0 km/h (0 Bft) 100,00 %
04.02.2023 19:18 7,9 C 7,2 C 3,9 C 86 % 1037,7 hPa 0,0 l/m 0 min 0 min 0 W/m 0,0 km/h (0 Bft) 97,87 %
04.02.2023 19:16 7,9 C 7,2 C 3,9 C 86 % 1037,8 hPa 0,0 l/m 0 min 0 min 0 W/m 0,0 km/h (0 Bft) 100,00 %
04.02.2023 19:14 7,9 C 7,2 C 3,9 C 86 % 1037,7 hPa 0,0 l/m 0 min 0 min 0 W/m 0,0 km/h (0 Bft) 97,87 %
04.02.2023 19:12 7,9 C 7,2 C 3,9 C 86 % 1037,8 hPa 0,0 l/m 0 min 0 min 0 W/m 0,0 km/h (0 Bft) 95,74 %
04.02.2023 19:10 7,9 C 7,2 C 3,9 C 87 % 1037,8 hPa 0,0 l/m 0 min 0 min 0 W/m 0,0 km/h (0 Bft) 97,87 %
04.02.2023 19:08 7,9 C 7,2 C 3,9 C 87 % 1037,8 hPa 0,0 l/m 0 min 0 min 0 W/m 0,0 km/h (0 Bft) 97,14 %
04.02.2023 19:06 7,9 C 7,2 C 3,9 C 87 % 1037,8 hPa 0,0 l/m 0 min 0 min 0 W/m 0,0 km/h (0 Bft) 98,31 %
04.02.2023 19:04 7,8 C 7,2 C 3,9 C 87 % 1037,7 hPa 0,0 l/m 0 min 0 min 0 W/m 0,0 km/h (0 Bft) 97,87 %
04.02.2023 19:02 7,8 C 7,2 C 3,9 C 87 % 1037,7 hPa 0,0 l/m 0 min 0 min 0 W/m 0,0 km/h (0 Bft) 95,65 %
04.02.2023 19:00 7,8 C 7,2 C 3,3 C 87 % 1037,7 hPa 0,0 l/m 0 min 0 min 0 W/m 0,0 km/h (0 Bft) 97,87 %
04.02.2023 18:58 7,8 C 7,2 C 3,3 C 87 % 1037,7 hPa 0,0 l/m 0 min 0 min 0 W/m 0,0 km/h (0 Bft) 97,87 %
04.02.2023 18:56 7,8 C 7,2 C 3,3 C 87 % 1037,8 hPa 0,0 l/m 0 min 0 min 0 W/m 0,0 km/h (0 Bft) 95,74 %
04.02.2023 18:54 7,8 C 7,2 C 3,3 C 87 % 1037,8 hPa 0,0 l/m 0 min 0 min 0 W/m 0,0 km/h (0 Bft) 97,87 %
04.02.2023 18:52 7,8 C 7,2 C 3,3 C 87 % 1037,8 hPa 0,0 l/m 0 min 0 min 0 W/m 0,0 km/h (0 Bft) 91,49 %
04.02.2023 18:50 7,8 C 7,2 C 3,3 C 87 % 1037,7 hPa 0,0 l/m 0 min 0 min 0 W/m 0,0 km/h (0 Bft) 93,62 %
04.02.2023 18:48 7,8 C 7,2 C 3,3 C 87 % 1037,7 hPa 0,0 l/m 0 min 0 min 0 W/m 0,0 km/h (0 Bft) 97,83 %
04.02.2023 18:46 7,8 C 7,2 C 3,3 C 87 % 1037,7 hPa 0,0 l/m 0 min 0 min 0 W/m 0,0 km/h (0 Bft) 97,87 %
04.02.2023 18:44 7,8 C 7,2 C 3,3 C 86 % 1037,6 hPa 0,0 l/m 0 min 0 min 0 W/m 0,0 km/h (0 Bft) 97,87 %
04.02.2023 18:42 7,8 C 7,2 C 3,3 C 86 % 1037,6 hPa 0,0 l/m 0 min 0 min 0 W/m 0,0 km/h (0 Bft) 95,74 %
04.02.2023 18:40 7,8 C 6,7 C 3,3 C 86 % 1037,6 hPa 0,0 l/m 0 min 0 min 0 W/m 0,0 km/h (0 Bft) 100,00 %
04.02.2023 18:38 7,8 C 6,7 C 3,3 C 86 % 1037,7 hPa 0,0 l/m 0 min 0 min 0 W/m 0,0 km/h (0 Bft) 97,87 %
04.02.2023 18:36 7,8 C 6,7 C 3,3 C 86 % 1037,6 hPa 0,0 l/m 0 min 0 min 0 W/m 0,0 km/h (0 Bft) 100,00 %
04.02.2023 18:34 7,8 C 6,7 C 3,3 C 86 % 1037,6 hPa 0,0 l/m 0 min 0 min 0 W/m 0,0 km/h (0 Bft) 97,87 %
04.02.2023 18:32 7,8 C 6,7 C 3,3 C 86 % 1037,7 hPa 0,0 l/m 0 min 0 min 0 W/m 0,0 km/h (0 Bft) 93,62 %
04.02.2023 18:30 7,8 C 6,7 C 3,3 C 86 % 1037,7 hPa 0,0 l/m 0 min 0 min 0 W/m 0,0 km/h (0 Bft) 100,00 %
04.02.2023 18:28 7,8 C 6,7 C 3,3 C 85 % 1037,7 hPa 0,0 l/m 0 min 0 min 0 W/m 0,0 km/h (0 Bft) 100,00 %
04.02.2023 18:26 7,8 C 6,7 C 3,3 C 85 % 1037,7 hPa 0,0 l/m 0 min 0 min 0 W/m 0,0 km/h (0 Bft) 97,87 %
04.02.2023 18:24 7,9 C 6,7 C 3,3 C 85 % 1037,7 hPa 0,0 l/m 0 min 0 min 0 W/m 0,0 km/h (0 Bft) 100,00 %
04.02.2023 18:22 7,9 C 6,7 C 3,3 C 85 % 1037,7 hPa 0,0 l/m 0 min 0 min 0 W/m 0,0 km/h (0 Bft) 100,00 %
04.02.2023 18:20 7,9 C 6,7 C 3,3 C 85 % 1037,7 hPa 0,0 l/m 0 min 0 min 0 W/m 0,0 km/h (0 Bft) 100,00 %
04.02.2023 18:18 7,9 C 6,7 C 3,3 C 85 % 1037,6 hPa 0,0 l/m 0 min 0 min 0 W/m 0,0 km/h (0 Bft) 100,00 %
04.02.2023 18:16 7,9 C 6,7 C 3,3 C 85 % 1037,6 hPa 0,0 l/m 0 min 0 min 0 W/m 0,0 km/h (0 Bft) 95,74 %
04.02.2023 18:14 7,9 C 6,7 C 3,3 C 85 % 1037,6 hPa 0,0 l/m 0 min 0 min 0 W/m 0,0 km/h (0 Bft) 93,62 %
04.02.2023 18:12 7,9 C 6,7 C 3,3 C 85 % 1037,6 hPa 0,0 l/m 0 min 0 min 0 W/m 0,0 km/h (0 Bft) 90,20 %
04.02.2023 18:08 8,0 C 6,7 C 3,3 C 84 % 1037,6 hPa 0,0 l/m 0 min 0 min 0 W/m 0,0 km/h (0 Bft) 100,00 %
04.02.2023 18:07 8,0 C 6,7 C 3,3 C 84 % 1037,6 hPa 0,0 l/m 0 min 0 min 0 W/m 0,0 km/h (0 Bft) 94,37 %
04.02.2023 18:04 8,1 C 6,7 C 3,3 C 84 % 1037,7 hPa 0,0 l/m 0 min 0 min 0 W/m 0,0 km/h (0 Bft) 95,74 %
04.02.2023 18:02 8,1 C 6,7 C 3,3 C 84 % 1037,7 hPa 0,0 l/m 0 min 0 min 0 W/m 0,0 km/h (0 Bft) 97,87 %
04.02.2023 18:00 8,1 C 6,7 C 3,3 C 84 % 1037,7 hPa 0,0 l/m 0 min 0 min 0 W/m 0,0 km/h (0 Bft) 95,65 %
04.02.2023 17:58 8,1 C 6,7 C 3,3 C 83 % 1037,6 hPa 0,0 l/m 0 min 0 min 0 W/m 0,0 km/h (0 Bft) 95,74 %
04.02.2023 17:56 8,1 C 6,7 C 3,3 C 83 % 1037,5 hPa 0,0 l/m 0 min 0 min 0 W/m 0,0 km/h (0 Bft) 93,62 %
04.02.2023 17:54 8,2 C 6,7 C 3,3 C 83 % 1037,5 hPa 0,0 l/m 0 min 0 min 0 W/m 0,0 km/h (0 Bft) 95,74 %
04.02.2023 17:52 8,2 C 6,7 C 3,3 C 83 % 1037,5 hPa 0,0 l/m 0 min 0 min 0 W/m 0,0 km/h (0 Bft) 93,62 %
04.02.2023 17:50 8,2 C 6,7 C 3,3 C 82 % 1037,5 hPa 0,0 l/m 0 min 0 min 0 W/m 0,0 km/h (0 Bft) 95,74 %
04.02.2023 17:48 8,2 C 6,7 C 3,3 C 82 % 1037,3 hPa 0,0 l/m 0 min 0 min 0 W/m 0,0 km/h (0 Bft) 93,62 %
04.02.2023 17:46 8,3 C 6,7 C 3,3 C 82 % 1037,4 hPa 0,0 l/m 0 min 0 min 0 W/m 0,0 km/h (0 Bft) 95,65 %
04.02.2023 17:44 8,3 C 6,7 C 3,3 C 82 % 1037,3 hPa 0,0 l/m 0 min 0 min 0 W/m 0,0 km/h (0 Bft) 95,74 %
04.02.2023 17:42 8,3 C 6,7 C 3,3 C 82 % 1037,3 hPa 0,0 l/m 0 min 0 min 0 W/m 0,0 km/h (0 Bft) 95,74 %
04.02.2023 17:40 8,3 C 6,7 C 3,3 C 82 % 1037,3 hPa 0,0 l/m 0 min 0 min 0 W/m 0,0 km/h (0 Bft) 97,87 %
04.02.2023 17:38 8,4 C 6,7 C 3,3 C 82 % 1037,3 hPa 0,0 l/m 0 min 0 min 0 W/m 0,0 km/h (0 Bft) 97,87 %
04.02.2023 17:36 8,4 C 6,7 C 3,3 C 81 % 1037,3 hPa 0,0 l/m 0 min 0 min 0 W/m 0,0 km/h (0 Bft) 97,83 %
04.02.2023 17:34 8,4 C 6,7 C 3,3 C 81 % 1037,3 hPa 0,0 l/m 0 min 0 min 0 W/m 0,0 km/h (0 Bft) 93,62 %
04.02.2023 17:32 8,5 C 6,7 C 2,8 C 81 % 1037,2 hPa 0,0 l/m 0 min 0 min 0 W/m 0,0 km/h (0 Bft) 97,87 %
04.02.2023 17:30 8,6 C 6,7 C 2,8 C 81 % 1037,2 hPa 0,0 l/m 0 min 0 min 3 W/m 0,0 km/h (0 Bft) 91,49 %
04.02.2023 17:28 8,6 C 6,7 C 2,8 C 81 % 1037,2 hPa 0,0 l/m 0 min 0 min 5 W/m 0,0 km/h (0 Bft) 97,87 %
04.02.2023 17:26 8,6 C 6,7 C 2,8 C 81 % 1037,2 hPa 0,0 l/m 0 min 0 min 5 W/m 0,0 km/h (0 Bft) 95,74 %
04.02.2023 17:24 8,6 C 6,7 C 2,8 C 81 % 1037,3 hPa 0,0 l/m 0 min 0 min 7 W/m 0,0 km/h (0 Bft) 97,83 %
04.02.2023 17:22 8,7 C 6,7 C 3,3 C 81 % 1037,3 hPa 0,0 l/m 0 min 0 min 9 W/m 0,0 km/h (0 Bft) 97,87 %
04.02.2023 17:20 8,7 C 6,7 C 3,3 C 81 % 1037,2 hPa 0,0 l/m 0 min 0 min 11 W/m 0,0 km/h (0 Bft) 100,00 %
04.02.2023 17:18 8,8 C 6,7 C 3,3 C 81 % 1037,1 hPa 0,0 l/m 0 min 0 min 12 W/m 0,0 km/h (0 Bft) 100,00 %
04.02.2023 17:16 8,8 C 6,7 C 3,3 C 81 % 1037,1 hPa 0,0 l/m 0 min 0 min 12 W/m 0,0 km/h (0 Bft) 95,74 %
04.02.2023 17:14 8,8 C 6,7 C 3,3 C 81 % 1037,2 hPa 0,0 l/m 0 min 0 min 14 W/m 0,0 km/h (0 Bft) 95,74 %
04.02.2023 17:12 8,9 C 6,7 C 3,3 C 81 % 1037,1 hPa 0,0 l/m 0 min 0 min 15 W/m 0,0 km/h (0 Bft) 95,74 %
04.02.2023 17:10 8,9 C 6,7 C 3,3 C 81 % 1037,1 hPa 0,0 l/m 0 min 0 min 16 W/m 0,0 km/h (0 Bft) 97,83 %
04.02.2023 17:08 8,9 C 6,7 C 3,3 C 81 % 1037,2 hPa 0,0 l/m 0 min 0 min 16 W/m 0,0 km/h (0 Bft) 97,87 %
04.02.2023 17:06 8,9 C 6,7 C 3,3 C 81 % 1037,2 hPa 0,0 l/m 0 min 0 min 18 W/m 0,0 km/h (0 Bft) 97,87 %
04.02.2023 17:04 9,0 C 7,2 C 3,3 C 81 % 1037,2 hPa 0,0 l/m 0 min 0 min 16 W/m 0,0 km/h (0 Bft) 95,74 %
04.02.2023 17:02 9,0 C 7,2 C 3,3 C 81 % 1037,2 hPa 0,0 l/m 0 min 0 min 16 W/m 0,0 km/h (0 Bft) 95,74 %
04.02.2023 17:00 9,1 C 7,2 C 3,9 C 81 % 1037,1 hPa 0,0 l/m 0 min 0 min 16 W/m 0,0 km/h (0 Bft) 97,87 %
04.02.2023 16:58 9,1 C 7,2 C 3,9 C 81 % 1037,1 hPa 0,0 l/m 0 min 0 min 14 W/m 0,0 km/h (0 Bft) 93,62 %
04.02.2023 16:56 9,1 C 7,2 C 3,9 C 81 % 1037,0 hPa 0,0 l/m 0 min 0 min 16 W/m 0,0 km/h (0 Bft) 97,83 %
04.02.2023 16:54 9,1 C 7,8 C 4,4 C 81 % 1037,1 hPa 0,0 l/m 0 min 0 min 16 W/m 0,0 km/h (0 Bft) 97,87 %
04.02.2023 16:52 9,1 C 7,8 C 4,4 C 80 % 1037,1 hPa 0,0 l/m 0 min 0 min 16 W/m 3,2 km/h (1 Bft) 95,74 %
04.02.2023 16:50 9,2 C 7,8 C 4,4 C 80 % 1037,1 hPa 0,0 l/m 0 min 0 min 18 W/m 0,0 km/h (0 Bft) 95,74 %
04.02.2023 16:48 9,2 C 7,8 C 4,4 C 80 % 1037,1 hPa 0,0 l/m 0 min 0 min 18 W/m 0,0 km/h (0 Bft) 97,87 %
04.02.2023 16:46 9,2 C 8,3 C 4,4 C 80 % 1037,0 hPa 0,0 l/m 0 min 0 min 20 W/m 3,2 km/h (1 Bft) 95,74 %
04.02.2023 16:44 9,2 C 8,3 C 4,4 C 80 % 1037,0 hPa 0,0 l/m 0 min 0 min 24 W/m 0,0 km/h (0 Bft) 100,00 %
04.02.2023 16:42 9,2 C 8,3 C 5,0 C 80 % 1037,0 hPa 0,0 l/m 0 min 0 min 28 W/m 3,2 km/h (1 Bft) 97,87 %
04.02.2023 16:40 9,3 C 8,3 C 5,0 C 80 % 1037,0 hPa 0,0 l/m 0 min 0 min 34 W/m 0,0 km/h (0 Bft) 100,00 %
04.02.2023 16:38 9,3 C 8,3 C 5,0 C 80 % 1037,0 hPa 0,0 l/m 0 min 0 min 42 W/m 3,2 km/h (1 Bft) 100,00 %
04.02.2023 16:36 9,3 C 8,3 C 5,0 C 80 % 1037,0 hPa 0,0 l/m 0 min 0 min 47 W/m 3,2 km/h (1 Bft) 100,00 %
04.02.2023 16:34 9,3 C 8,9 C 5,0 C 80 % 1037,0 hPa 0,0 l/m 0 min 0 min 46 W/m 0,0 km/h (0 Bft) 100,00 %
04.02.2023 16:32 9,3 C 8,9 C 5,0 C 80 % 1037,0 hPa 0,0 l/m 0 min 0 min 46 W/m 3,2 km/h (1 Bft) 100,00 %
04.02.2023 16:30 9,3 C 8,9 C 5,0 C 80 % 1037,0 hPa 0,0 l/m 0 min 0 min 40 W/m 6,4 km/h (2 Bft) 97,87 %
04.02.2023 16:28 9,4 C 8,9 C 5,0 C 80 % 1036,9 hPa 0,0 l/m 0 min 0 min 35 W/m 6,4 km/h (2 Bft) 100,00 %
04.02.2023 16:26 9,4 C 8,9 C 5,0 C 80 % 1036,9 hPa 0,0 l/m 0 min 0 min 38 W/m 0,0 km/h (0 Bft) 100,00 %
04.02.2023 16:24 9,4 C 8,9 C 5,6 C 80 % 1036,9 hPa 0,0 l/m 0 min 0 min 44 W/m 3,2 km/h (1 Bft) 97,87 %
04.02.2023 16:22 9,4 C 8,9 C 5,6 C 80 % 1036,9 hPa 0,0 l/m 0 min 0 min 43 W/m 3,2 km/h (1 Bft) 97,87 %
04.02.2023 16:20 9,4 C 8,9 C 5,6 C 80 % 1036,9 hPa 0,0 l/m 0 min 0 min 42 W/m 6,4 km/h (2 Bft) 100,00 %
04.02.2023 16:18 9,4 C 8,9 C 5,6 C 80 % 1036,9 hPa 0,0 l/m 0 min 0 min 45 W/m 3,2 km/h (1 Bft) 100,00 %
04.02.2023 16:16 9,4 C 8,9 C 5,6 C 80 % 1036,9 hPa 0,0 l/m 0 min 0 min 48 W/m 3,2 km/h (1 Bft) 100,00 %
04.02.2023 16:14 9,4 C 9,4 C 5,6 C 80 % 1036,9 hPa 0,0 l/m 0 min 0 min 49 W/m 0,0 km/h (0 Bft) 100,00 %
04.02.2023 16:12 9,4 C 9,4 C 5,6 C 80 % 1036,9 hPa 0,0 l/m 0 min 0 min 51 W/m 0,0 km/h (0 Bft) 97,87 %
04.02.2023 16:10 9,4 C 9,4 C 5,6 C 80 % 1036,9 hPa 0,0 l/m 0 min 0 min 54 W/m 0,0 km/h (0 Bft) 95,74 %
04.02.2023 16:08 9,4 C 9,4 C 5,6 C 80 % 1036,9 hPa 0,0 l/m 0 min 0 min 59 W/m 3,2 km/h (1 Bft) 97,87 %
04.02.2023 16:06 9,5 C 9,4 C 5,6 C 81 % 1036,9 hPa 0,0 l/m 0 min 0 min 66 W/m 3,2 km/h (1 Bft) 100,00 %
04.02.2023 16:04 9,5 C 9,4 C 5,6 C 81 % 1036,9 hPa 0,0 l/m 0 min 0 min 71 W/m 6,4 km/h (2 Bft) 100,00 %
04.02.2023 16:02 9,4 C 9,4 C 5,6 C 81 % 1036,9 hPa 0,0 l/m 0 min 0 min 75 W/m 3,2 km/h (1 Bft) 100,00 %
04.02.2023 16:00 9,5 C 9,4 C 5,6 C 81 % 1036,9 hPa 0,0 l/m 0 min 0 min 74 W/m 0,0 km/h (0 Bft) 100,00 %
04.02.2023 15:58 9,5 C 9,4 C 5,6 C 81 % 1036,9 hPa 0,0 l/m 0 min 0 min 71 W/m 0,0 km/h (0 Bft) 100,00 %
04.02.2023 15:56 9,5 C 9,4 C 5,6 C 81 % 1036,9 hPa 0,0 l/m 0 min 0 min 80 W/m 6,4 km/h (2 Bft) 97,87 %
04.02.2023 15:54 9,5 C 9,4 C 5,6 C 81 % 1036,9 hPa 0,0 l/m 0 min 0 min 84 W/m 3,2 km/h (1 Bft) 100,00 %
04.02.2023 15:52 9,5 C 9,4 C 5,6 C 81 % 1036,9 hPa 0,0 l/m 0 min 0 min 85 W/m 3,2 km/h (1 Bft) 95,65 %
04.02.2023 15:50 9,5 C 9,4 C 5,6 C 81 % 1036,8 hPa 0,0 l/m 0 min 0 min 82 W/m 0,0 km/h (0 Bft) 97,87 %
04.02.2023 15:48 9,4 C 9,4 C 5,6 C 81 % 1036,8 hPa 0,0 l/m 0 min 0 min 88 W/m 0,0 km/h (0 Bft) 97,87 %
04.02.2023 15:46 9,4 C 9,4 C 5,6 C 80 % 1036,9 hPa 0,0 l/m 0 min 0 min 88 W/m 0,0 km/h (0 Bft) 95,74 %
04.02.2023 15:44 9,5 C 9,4 C 5,6 C 80 % 1036,8 hPa 0,0 l/m 0 min 0 min 80 W/m 0,0 km/h (0 Bft) 97,87 %
04.02.2023 15:42 9,5 C 9,4 C 5,6 C 80 % 1036,9 hPa 0,0 l/m 0 min 0 min 75 W/m 3,2 km/h (1 Bft) 97,87 %
04.02.2023 15:40 9,5 C 9,4 C 5,6 C 80 % 1036,8 hPa 0,0 l/m 0 min 0 min 70 W/m 3,2 km/h (1 Bft) 97,83 %
04.02.2023 15:38 9,5 C 9,4 C 5,6 C 80 % 1036,8 hPa 0,0 l/m 0 min 0 min 74 W/m 3,2 km/h (1 Bft) 97,87 %
04.02.2023 15:36 9,5 C 9,4 C 6,1 C 80 % 1036,8 hPa 0,0 l/m 0 min 0 min 83 W/m 3,2 km/h (1 Bft) 97,87 %
04.02.2023 15:34 9,6 C 9,4 C 6,1 C 80 % 1036,8 hPa 0,0 l/m 0 min 0 min 95 W/m 3,2 km/h (1 Bft) 97,87 %
04.02.2023 15:32 9,6 C 9,4 C 6,1 C 80 % 1036,7 hPa 0,0 l/m 0 min 0 min 107 W/m 6,4 km/h (2 Bft) 97,87 %
04.02.2023 15:30 9,6 C 10,0 C 6,1 C 81 % 1036,7 hPa 0,0 l/m 0 min 0 min 115 W/m 6,4 km/h (2 Bft) 97,87 %
04.02.2023 15:28 9,6 C 10,0 C 6,1 C 81 % 1036,7 hPa 0,0 l/m 2 min 0 min 125 W/m 6,4 km/h (2 Bft) 93,48 %
04.02.2023 15:26 9,6 C 10,0 C 6,1 C 81 % 1036,6 hPa 0,0 l/m 2 min 0 min 133 W/m 3,2 km/h (1 Bft) 93,62 %
04.02.2023 15:24 9,6 C 10,0 C 6,1 C 81 % 1036,6 hPa 0,0 l/m 2 min 0 min 138 W/m 3,2 km/h (1 Bft) 95,74 %
04.02.2023 15:22 9,6 C 10,0 C 6,1 C 81 % 1036,6 hPa 0,0 l/m 2 min 0 min 144 W/m 6,4 km/h (2 Bft) 95,74 %
04.02.2023 15:20 9,6 C 10,0 C 6,1 C 81 % 1036,6 hPa 0,0 l/m 2 min 0 min 147 W/m 6,4 km/h (2 Bft) 93,62 %
04.02.2023 15:18 9,6 C 10,0 C 6,1 C 81 % 1036,6 hPa 0,0 l/m 2 min 0 min 158 W/m 6,4 km/h (2 Bft) 95,74 %
04.02.2023 15:16 9,5 C 10,0 C 6,1 C 81 % 1036,6 hPa 0,0 l/m 2 min 0 min 169 W/m 3,2 km/h (1 Bft) 93,48 %
04.02.2023 15:14 9,5 C 10,0 C 6,1 C 81 % 1036,6 hPa 0,0 l/m 2 min 0 min 176 W/m 3,2 km/h (1 Bft) 95,74 %
04.02.2023 15:12 9,4 C 10,0 C 6,1 C 81 % 1036,7 hPa 0,0 l/m 2 min 0 min 176 W/m 9,7 km/h (2 Bft) 82,98 %
04.02.2023 15:10 9,4 C 10,0 C 6,1 C 81 % 1036,6 hPa 0,0 l/m 2 min 0 min 173 W/m 6,4 km/h (2 Bft) 93,62 %
04.02.2023 15:08 9,4 C 10,0 C 6,1 C 81 % 1036,7 hPa 0,0 l/m 2 min 0 min 171 W/m 3,2 km/h (1 Bft) 93,62 %
04.02.2023 15:06 9,4 C 10,0 C 6,1 C 81 % 1036,7 hPa 0,0 l/m 2 min 0 min 171 W/m 6,4 km/h (2 Bft) 93,62 %
04.02.2023 15:04 9,4 C 10,0 C 6,1 C 81 % 1036,6 hPa 0,0 l/m 2 min 0 min 172 W/m 6,4 km/h (2 Bft) 93,62 %
04.02.2023 15:02 9,4 C 10,0 C 6,1 C 81 % 1036,6 hPa 0,0 l/m 2 min 0 min 163 W/m 6,4 km/h (2 Bft) 91,30 %
04.02.2023 15:00 9,5 C 10,0 C 6,1 C 81 % 1036,6 hPa 0,0 l/m 2 min 0 min 165 W/m 6,4 km/h (2 Bft) 91,49 %
04.02.2023 14:58 9,5 C 10,0 C 6,1 C 82 % 1036,7 hPa 0,0 l/m 2 min 0 min 172 W/m 9,7 km/h (2 Bft) 89,36 %
04.02.2023 14:56 9,6 C 10,0 C 6,1 C 82 % 1036,7 hPa 0,0 l/m 2 min 0 min 179 W/m 3,2 km/h (1 Bft) 93,62 %
04.02.2023 14:54 9,6 C 10,0 C 6,1 C 82 % 1036,7 hPa 0,0 l/m 2 min 0 min 187 W/m 6,4 km/h (2 Bft) 95,74 %
04.02.2023 14:52 9,6 C 10,6 C 6,1 C 82 % 1036,7 hPa 0,0 l/m 2 min 0 min 191 W/m 9,7 km/h (2 Bft) 91,49 %
04.02.2023 14:50 9,5 C 10,6 C 6,1 C 82 % 1036,7 hPa 0,0 l/m 2 min 0 min 191 W/m 9,7 km/h (2 Bft) 93,48 %
04.02.2023 14:48 9,5 C 10,6 C 6,1 C 82 % 1036,7 hPa 0,0 l/m 2 min 0 min 193 W/m 3,2 km/h (1 Bft) 95,74 %
04.02.2023 14:46 9,5 C 10,6 C 6,1 C 82 % 1036,8 hPa 0,0 l/m 2 min 0 min 202 W/m 6,4 km/h (2 Bft) 95,74 %
04.02.2023 14:44 9,4 C 10,6 C 6,1 C 82 % 1036,8 hPa 0,0 l/m 2 min 0 min 212 W/m 6,4 km/h (2 Bft) 97,87 %
04.02.2023 14:42 9,4 C 10,6 C 6,1 C 82 % 1036,8 hPa 0,0 l/m 2 min 0 min 224 W/m 9,7 km/h (2 Bft) 97,87 %
04.02.2023 14:40 9,5 C 10,6 C 6,1 C 83 % 1036,8 hPa 0,0 l/m 2 min 0 min 168 W/m 6,4 km/h (2 Bft) 95,74 %
04.02.2023 14:38 9,4 C 10,0 C 6,1 C 83 % 1036,7 hPa 0,0 l/m 2 min 0 min 174 W/m 3,2 km/h (1 Bft) 97,87 %
04.02.2023 14:36 9,4 C 10,0 C 6,1 C 83 % 1036,8 hPa 0,0 l/m 2 min 0 min 183 W/m 6,4 km/h (2 Bft) 97,83 %
04.02.2023 14:34 9,5 C 10,0 C 6,1 C 83 % 1036,8 hPa 0,0 l/m 2 min 0 min 163 W/m 9,7 km/h (2 Bft) 97,87 %
04.02.2023 14:32 9,6 C 10,0 C 6,1 C 83 % 1036,9 hPa 0,0 l/m 2 min 0 min 168 W/m 9,7 km/h (2 Bft) 97,87 %
04.02.2023 14:30 9,6 C 10,6 C 6,1 C 83 % 1036,8 hPa 0,0 l/m 2 min 0 min 170 W/m 6,4 km/h (2 Bft) 95,74 %
04.02.2023 14:28 9,6 C 10,6 C 6,1 C 83 % 1036,9 hPa 0,0 l/m 0 min 0 min 162 W/m 9,7 km/h (2 Bft) 97,87 %
04.02.2023 14:26 9,5 C 10,6 C 6,1 C 83 % 1036,9 hPa 0,0 l/m 2 min 0 min 167 W/m 3,2 km/h (1 Bft) 97,87 %
04.02.2023 14:24 9,4 C 10,6 C 6,1 C 83 % 1036,9 hPa 0,0 l/m 2 min 0 min 177 W/m 3,2 km/h (1 Bft) 100,00 %
04.02.2023 14:22 9,4 C 10,6 C 6,1 C 83 % 1036,9 hPa 0,0 l/m 2 min 0 min 186 W/m 9,7 km/h (2 Bft) 100,00 %
04.02.2023 14:20 9,4 C 10,6 C 6,1 C 83 % 1036,9 hPa 0,0 l/m 2 min 0 min 196 W/m 9,7 km/h (2 Bft) 100,00 %
04.02.2023 14:18 9,4 C 10,6 C 6,1 C 83 % 1036,9 hPa 0,0 l/m 2 min 0 min 193 W/m 3,2 km/h (1 Bft) 100,00 %
04.02.2023 14:16 9,4 C 11,1 C 6,1 C 83 % 1036,9 hPa 0,0 l/m 2 min 0 min 192 W/m 6,4 km/h (2 Bft) 100,00 %
04.02.2023 14:14 9,4 C 10,6 C 6,1 C 83 % 1036,9 hPa 0,0 l/m 2 min 0 min 185 W/m 9,7 km/h (2 Bft) 100,00 %
04.02.2023 14:12 9,4 C 10,6 C 6,1 C 83 % 1036,9 hPa 0,0 l/m 2 min 0 min 188 W/m 6,4 km/h (2 Bft) 100,00 %
04.02.2023 14:10 9,4 C 10,6 C 6,7 C 83 % 1037,0 hPa 0,0 l/m 2 min 0 min 185 W/m 3,2 km/h (1 Bft) 100,00 %
04.02.2023 14:08 9,4 C 10,6 C 6,1 C 83 % 1036,9 hPa 0,0 l/m 2 min 0 min 188 W/m 6,4 km/h (2 Bft) 100,00 %
04.02.2023 14:06 9,4 C 10,6 C 6,7 C 83 % 1037,0 hPa 0,0 l/m 2 min 0 min 188 W/m 6,4 km/h (2 Bft) 100,00 %
04.02.2023 14:04 9,3 C 10,6 C 6,1 C 83 % 1037,0 hPa 0,0 l/m 2 min 0 min 192 W/m 6,4 km/h (2 Bft) 100,00 %
04.02.2023 14:02 9,3 C 10,6 C 6,1 C 83 % 1037,0 hPa 0,0 l/m 2 min 0 min 199 W/m 3,2 km/h (1 Bft) 94,44 %
04.02.2023 14:00 9,3 C 10,6 C 6,1 C 83 % 1037,0 hPa 0,0 l/m 2 min 0 min 203 W/m 9,7 km/h (2 Bft) 100,00 %
04.02.2023 13:58 9,3 C 10,0 C 6,1 C 83 % 1037,0 hPa 0,0 l/m 2 min 0 min 205 W/m 6,4 km/h (2 Bft) 100,00 %
04.02.2023 13:56 9,3 C 10,6 C 6,1 C 84 % 1037,0 hPa 0,0 l/m 2 min 0 min 205 W/m 9,7 km/h (2 Bft) 97,87 %
04.02.2023 13:54 9,3 C 10,6 C 6,1 C 84 % 1037,0 hPa 0,0 l/m 2 min 0 min 203 W/m 6,4 km/h (2 Bft) 100,00 %
04.02.2023 13:52 9,3 C 10,6 C 6,1 C 84 % 1037,0 hPa 0,0 l/m 2 min 0 min 199 W/m 6,4 km/h (2 Bft) 100,00 %
04.02.2023 13:50 9,3 C 10,6 C 6,1 C 84 % 1037,0 hPa 0,0 l/m 2 min 0 min 197 W/m 6,4 km/h (2 Bft) 100,00 %
04.02.2023 13:48 9,3 C 10,0 C 6,1 C 84 % 1037,0 hPa 0,0 l/m 2 min 0 min 196 W/m 12,9 km/h (3 Bft) 100,00 %
04.02.2023 13:46 9,3 C 10,6 C 6,1 C 84 % 1037,0 hPa 0,0 l/m 2 min 0 min 198 W/m 9,7 km/h (2 Bft) 100,00 %
04.02.2023 13:44 9,3 C 10,6 C 6,1 C 84 % 1037,0 hPa 0,0 l/m 2 min 0 min 203 W/m 6,4 km/h (2 Bft) 100,00 %
04.02.2023 13:42 9,3 C 10,6 C 6,7 C 84 % 1036,9 hPa 0,0 l/m 2 min 0 min 207 W/m 9,7 km/h (2 Bft) 100,00 %
04.02.2023 13:40 9,3 C 10,6 C 6,7 C 85 % 1036,9 hPa 0,0 l/m 2 min 0 min 213 W/m 9,7 km/h (2 Bft) 97,87 %
04.02.2023 13:38 9,3 C 10,6 C 6,1 C 85 % 1036,9 hPa 0,0 l/m 2 min 0 min 213 W/m 6,4 km/h (2 Bft) 97,87 %
04.02.2023 13:36 9,3 C 10,0 C 6,1 C 85 % 1036,9 hPa 0,0 l/m 2 min 0 min 211 W/m 9,7 km/h (2 Bft) 100,00 %
04.02.2023 13:34 9,3 C 10,0 C 6,1 C 85 % 1036,9 hPa 0,0 l/m 2 min 0 min 208 W/m 6,4 km/h (2 Bft) 97,83 %
04.02.2023 13:32 9,3 C 10,6 C 6,1 C 85 % 1037,0 hPa 0,0 l/m 2 min 0 min 203 W/m 6,4 km/h (2 Bft) 100,00 %
04.02.2023 13:30 9,3 C 10,6 C 6,7 C 85 % 1036,9 hPa 0,0 l/m 2 min 0 min 206 W/m 6,4 km/h (2 Bft) 100,00 %
04.02.2023 13:28 9,3 C 11,1 C 6,7 C 85 % 1037,0 hPa 0,0 l/m 2 min 0 min 197 W/m 9,7 km/h (2 Bft) 100,00 %
04.02.2023 13:26 9,3 C 11,7 C 6,7 C 85 % 1036,9 hPa 0,0 l/m 2 min 0 min 197 W/m 3,2 km/h (1 Bft) 97,87 %
04.02.2023 13:24 9,3 C 11,7 C 6,7 C 85 % 1036,9 hPa 0,0 l/m 2 min 0 min 236 W/m 6,4 km/h (2 Bft) 100,00 %
04.02.2023 13:22 9,3 C 11,7 C 6,7 C 85 % 1036,9 hPa 0,0 l/m 2 min 0 min 237 W/m 9,7 km/h (2 Bft) 97,83 %
04.02.2023 13:20 9,2 C 11,7 C 6,7 C 85 % 1036,9 hPa 0,0 l/m 2 min 0 min 240 W/m 9,7 km/h (2 Bft) 100,00 %
04.02.2023 13:18 9,2 C 11,7 C 6,7 C 86 % 1036,8 hPa 0,0 l/m 2 min 0 min 261 W/m 9,7 km/h (2 Bft) 100,00 %
04.02.2023 13:16 9,2 C 12,2 C 6,7 C 86 % 1036,8 hPa 0,0 l/m 2 min 0 min 277 W/m 6,4 km/h (2 Bft) 100,00 %
04.02.2023 13:14 9,2 C 12,2 C 6,7 C 86 % 1036,8 hPa 0,0 l/m 2 min 0 min 278 W/m 6,4 km/h (2 Bft) 100,00 %
04.02.2023 13:12 9,1 C 12,2 C 6,1 C 86 % 1036,8 hPa 0,0 l/m 2 min 0 min 326 W/m 3,2 km/h (1 Bft) 97,87 %
04.02.2023 13:10 9,1 C 12,2 C 6,1 C 86 % 1036,8 hPa 0,0 l/m 2 min 0 min 349 W/m 6,4 km/h (2 Bft) 100,00 %
04.02.2023 13:08 9,1 C 11,7 C 6,7 C 87 % 1036,8 hPa 0,0 l/m 2 min 0 min 262 W/m 9,7 km/h (2 Bft) 100,00 %
04.02.2023 13:06 9,1 C 11,1 C 6,7 C 87 % 1036,8 hPa 0,0 l/m 2 min 0 min 239 W/m 6,4 km/h (2 Bft) 100,00 %
04.02.2023 13:04 9,1 C 11,7 C 6,7 C 87 % 1036,9 hPa 0,0 l/m 2 min 0 min 278 W/m 6,4 km/h (2 Bft) 100,00 %
04.02.2023 13:02 9,1 C 11,1 C 6,7 C 87 % 1036,9 hPa 0,0 l/m 2 min 0 min 233 W/m 6,4 km/h (2 Bft) 100,00 %
04.02.2023 13:00 9,0 C 11,1 C 6,7 C 88 % 1036,9 hPa 0,0 l/m 2 min 0 min 209 W/m 6,4 km/h (2 Bft) 97,87 %
04.02.2023 12:58 8,9 C 11,1 C 6,7 C 88 % 1036,9 hPa 0,0 l/m 2 min 0 min 194 W/m 3,2 km/h (1 Bft) 97,87 %
04.02.2023 12:56 8,9 C 11,1 C 6,7 C 88 % 1036,9 hPa 0,0 l/m 2 min 0 min 211 W/m 3,2 km/h (1 Bft) 97,83 %
04.02.2023 12:54 8,9 C 11,1 C 6,7 C 89 % 1036,9 hPa 0,0 l/m 2 min 0 min 245 W/m 3,2 km/h (1 Bft) 97,87 %
04.02.2023 12:52 8,8 C 10,6 C 6,7 C 89 % 1036,9 hPa 0,0 l/m 2 min 0 min 239 W/m 0,0 km/h (0 Bft) 97,87 %
04.02.2023 12:50 8,8 C 10,6 C 6,7 C 89 % 1036,9 hPa 0,0 l/m 2 min 0 min 233 W/m 3,2 km/h (1 Bft) 95,74 %
04.02.2023 12:48 8,8 C 10,6 C 6,7 C 89 % 1036,9 hPa 0,0 l/m 2 min 0 min 228 W/m 9,7 km/h (2 Bft) 93,62 %
04.02.2023 12:46 8,7 C 10,6 C 6,7 C 89 % 1036,9 hPa 0,0 l/m 2 min 0 min 214 W/m 6,4 km/h (2 Bft) 95,74 %
04.02.2023 12:44 8,7 C 10,6 C 6,7 C 90 % 1036,9 hPa 0,0 l/m 2 min 0 min 207 W/m 6,4 km/h (2 Bft) 93,62 %
04.02.2023 12:42 8,7 C 10,6 C 6,7 C 90 % 1036,9 hPa 0,0 l/m 2 min 0 min 209 W/m 6,4 km/h (2 Bft) 93,48 %
04.02.2023 12:40 8,7 C 11,1 C 6,7 C 90 % 1036,9 hPa 0,0 l/m 2 min 0 min 211 W/m 6,4 km/h (2 Bft) 95,74 %
04.02.2023 12:38 8,6 C 11,1 C 6,7 C 91 % 1036,9 hPa 0,0 l/m 2 min 0 min 213 W/m 6,4 km/h (2 Bft) 95,74 %
04.02.2023 12:36 8,6 C 11,1 C 6,7 C 91 % 1036,9 hPa 0,0 l/m 2 min 0 min 240 W/m 6,4 km/h (2 Bft) 93,62 %
04.02.2023 12:34 8,5 C 11,7 C 6,7 C 91 % 1036,9 hPa 0,0 l/m 2 min 0 min 284 W/m 3,2 km/h (1 Bft) 95,74 %
04.02.2023 12:32 8,4 C 11,1 C 6,1 C 91 % 1036,9 hPa 0,0 l/m 2 min 0 min 290 W/m 6,4 km/h (2 Bft) 95,74 %
04.02.2023 12:30 8,4 C 10,6 C 6,1 C 91 % 1036,8 hPa 0,0 l/m 2 min 0 min 273 W/m 3,2 km/h (1 Bft) 91,30 %
04.02.2023 12:28 8,3 C 10,0 C 6,1 C 91 % 1036,8 hPa 0,0 l/m 2 min 0 min 213 W/m 3,2 km/h (1 Bft) 93,62 %
04.02.2023 12:26 8,3 C 9,4 C 5,6 C 91 % 1036,9 hPa 0,0 l/m 0 min 0 min 187 W/m 0,0 km/h (0 Bft) 95,74 %
04.02.2023 12:24 8,4 C 9,4 C 5,6 C 91 % 1036,9 hPa 0,0 l/m 0 min 0 min 168 W/m 3,2 km/h (1 Bft) 93,62 %
04.02.2023 12:22 8,3 C 9,4 C 6,1 C 91 % 1037,0 hPa 0,0 l/m 0 min 0 min 172 W/m 9,7 km/h (2 Bft) 94,29 %
04.02.2023 12:20 8,4 C 9,4 C 6,1 C 91 % 1037,0 hPa 0,0 l/m 0 min 0 min 179 W/m 0,0 km/h (0 Bft) 95,74 %
04.02.2023 12:18 8,4 C 9,4 C 6,1 C 92 % 1036,9 hPa 0,0 l/m 0 min 0 min 185 W/m 0,0 km/h (0 Bft) 97,96 %
04.02.2023 12:16 8,4 C 10,0 C 6,1 C 92 % 1036,9 hPa 0,0 l/m 0 min 0 min 186 W/m 6,4 km/h (2 Bft) 97,96 %
04.02.2023 12:14 8,4 C 10,0 C 6,1 C 92 % 1036,8 hPa 0,0 l/m 0 min 0 min 189 W/m 6,4 km/h (2 Bft) 98,15 %
04.02.2023 12:12 8,3 C 9,4 C 6,1 C 92 % 1036,8 hPa 0,0 l/m 4 min 0 min 195 W/m 9,7 km/h (2 Bft) 96,00 %
04.02.2023 12:08 8,3 C 10,0 C 6,1 C 93 % 1036,8 hPa 0,0 l/m 1 min 0 min 200 W/m 0,0 km/h (0 Bft) 95,65 %
04.02.2023 12:07 8,2 C 10,0 C 6,1 C 93 % 1036,8 hPa 0,0 l/m 3 min 0 min 204 W/m 6,4 km/h (2 Bft) 95,83 %
04.02.2023 12:04 8,2 C 10,6 C 6,1 C 93 % 1036,8 hPa 0,0 l/m 2 min 0 min 209 W/m 0,0 km/h (0 Bft) 100,00 %
04.02.2023 12:02 8,1 C 10,0 C 6,1 C 93 % 1036,8 hPa 0,0 l/m 2 min 0 min 220 W/m 3,2 km/h (1 Bft) 100,00 %
04.02.2023 12:00 8,1 C 9,4 C 6,1 C 93 % 1036,8 hPa 0,0 l/m 2 min 0 min 226 W/m 6,4 km/h (2 Bft) 93,62 %
04.02.2023 11:58 8,0 C 9,4 C 5,6 C 93 % 1036,8 hPa 0,0 l/m 2 min 0 min 216 W/m 12,9 km/h (3 Bft) 97,87 %
04.02.2023 11:56 8,0 C 9,4 C 5,6 C 93 % 1036,8 hPa 0,0 l/m 2 min 0 min 192 W/m 6,4 km/h (2 Bft) 6,25 %
04.02.2023 11:54 7,9 C 8,9 C 5,6 C 93 % 1036,8 hPa 0,0 l/m 2 min 0 min 190 W/m 3,2 km/h (1 Bft) 85,11 %
04.02.2023 11:52 7,9 C 9,4 C 5,6 C 94 % 1036,8 hPa 0,0 l/m 0 min 0 min 182 W/m 3,2 km/h (1 Bft) 97,87 %
04.02.2023 11:50 7,9 C 9,4 C 5,6 C 94 % 1036,8 hPa 0,0 l/m 0 min 0 min 179 W/m 3,2 km/h (1 Bft) 97,87 %
04.02.2023 11:48 7,8 C 9,4 C 5,6 C 94 % 1036,8 hPa 0,0 l/m 2 min 0 min 187 W/m 6,4 km/h (2 Bft) 95,74 %
04.02.2023 11:46 7,8 C 8,9 C 5,6 C 94 % 1036,9 hPa 0,0 l/m 2 min 0 min 197 W/m 0,0 km/h (0 Bft) 97,87 %
04.02.2023 11:44 7,8 C 9,4 C 5,6 C 94 % 1036,8 hPa 0,0 l/m 2 min 0 min 196 W/m 9,7 km/h (2 Bft) 97,83 %
04.02.2023 11:42 7,8 C 9,4 C 5,6 C 94 % 1036,8 hPa 0,0 l/m 2 min 0 min 190 W/m 6,4 km/h (2 Bft) 97,87 %
04.02.2023 11:40 7,7 C 9,4 C 5,6 C 95 % 1036,8 hPa 0,0 l/m 2 min 0 min 189 W/m 3,2 km/h (1 Bft) 97,87 %
04.02.2023 11:38 7,7 C 9,4 C 5,6 C 95 % 1036,8 hPa 0,0 l/m 2 min 0 min 183 W/m 6,4 km/h (2 Bft) 97,87 %
04.02.2023 11:36 7,7 C 9,4 C 5,6 C 95 % 1036,9 hPa 0,0 l/m 2 min 0 min 199 W/m 9,7 km/h (2 Bft) 93,62 %
04.02.2023 11:34 7,6 C 9,4 C 5,6 C 95 % 1036,8 hPa 0,0 l/m 2 min 0 min 217 W/m 6,4 km/h (2 Bft) 97,87 %
04.02.2023 11:32 7,6 C 9,4 C 5,6 C 95 % 1036,9 hPa 0,0 l/m 2 min 0 min 216 W/m 9,7 km/h (2 Bft) 97,87 %
04.02.2023 11:30 7,6 C 9,4 C 5,6 C 95 % 1036,9 hPa 0,0 l/m 2 min 0 min 201 W/m 6,4 km/h (2 Bft) 97,83 %
04.02.2023 11:28 7,5 C 8,9 C 5,6 C 95 % 1036,9 hPa 0,0 l/m 2 min 0 min 205 W/m 3,2 km/h (1 Bft) 97,87 %
04.02.2023 11:26 7,4 C 8,9 C 5,6 C 96 % 1036,9 hPa 0,0 l/m 2 min 0 min 200 W/m 6,4 km/h (2 Bft) 97,87 %
04.02.2023 11:24 7,4 C 9,4 C 5,6 C 96 % 1036,9 hPa 0,0 l/m 2 min 0 min 202 W/m 6,4 km/h (2 Bft) 93,62 %
04.02.2023 11:22 7,4 C 9,4 C 5,6 C 96 % 1036,8 hPa 0,0 l/m 2 min 0 min 210 W/m 6,4 km/h (2 Bft) 97,87 %
04.02.2023 11:20 7,3 C 10,0 C 5,6 C 96 % 1036,9 hPa 0,0 l/m 2 min 0 min 234 W/m 6,4 km/h (2 Bft) 97,87 %
04.02.2023 11:18 7,3 C 9,4 C 5,6 C 96 % 1036,9 hPa 0,0 l/m 2 min 0 min 221 W/m 9,7 km/h (2 Bft) 95,65 %
04.02.2023 11:16 7,3 C 9,4 C 5,0 C 96 % 1036,9 hPa 0,0 l/m 2 min 0 min 235 W/m 12,9 km/h (3 Bft) 97,87 %
04.02.2023 11:14 7,2 C 9,4 C 5,0 C 96 % 1036,9 hPa 0,0 l/m 2 min 0 min 264 W/m 6,4 km/h (2 Bft) 97,87 %
04.02.2023 11:12 7,1 C 8,9 C 5,0 C 96 % 1036,9 hPa 0,0 l/m 2 min 0 min 226 W/m 9,7 km/h (2 Bft) 95,74 %
04.02.2023 11:10 7,1 C 8,3 C 5,0 C 96 % 1036,9 hPa 0,0 l/m 2 min 0 min 212 W/m 6,4 km/h (2 Bft) 97,87 %
04.02.2023 11:08 7,0 C 7,8 C 4,4 C 96 % 1036,9 hPa 0,0 l/m 2 min 0 min 187 W/m 9,7 km/h (2 Bft) 97,14 %
04.02.2023 11:06 7,0 C 7,2 C 4,4 C 96 % 1036,9 hPa 0,0 l/m 0 min 0 min 157 W/m 3,2 km/h (1 Bft) 94,92 %
04.02.2023 11:04 6,9 C 7,2 C 4,4 C 96 % 1036,9 hPa 0,0 l/m 0 min 0 min 136 W/m 0,0 km/h (0 Bft) 97,83 %
04.02.2023 11:02 6,9 C 7,2 C 4,4 C 96 % 1036,8 hPa 0,0 l/m 0 min 0 min 122 W/m 9,7 km/h (2 Bft) 97,87 %
04.02.2023 11:00 6,9 C 7,2 C 4,4 C 96 % 1036,7 hPa 0,0 l/m 0 min 0 min 105 W/m 6,4 km/h (2 Bft) 95,74 %
04.02.2023 10:58 6,9 C 6,7 C 4,4 C 96 % 1036,7 hPa 0,0 l/m 0 min 0 min 97 W/m 9,7 km/h (2 Bft) 97,87 %
04.02.2023 10:56 6,9 C 6,7 C 4,4 C 97 % 1036,7 hPa 0,0 l/m 0 min 0 min 100 W/m 16,1 km/h (3 Bft) 97,87 %
04.02.2023 10:54 6,9 C 6,7 C 4,4 C 97 % 1036,6 hPa 0,0 l/m 0 min 0 min 95 W/m 9,7 km/h (2 Bft) 100,00 %
04.02.2023 10:52 6,9 C 6,7 C 4,4 C 97 % 1036,7 hPa 0,0 l/m 0 min 0 min 95 W/m 9,7 km/h (2 Bft) 100,00 %
04.02.2023 10:50 6,9 C 6,7 C 4,4 C 97 % 1036,6 hPa 0,0 l/m 0 min 0 min 95 W/m 6,4 km/h (2 Bft) 97,83 %
04.02.2023 10:48 6,8 C 6,7 C 3,9 C 97 % 1036,6 hPa 0,0 l/m 0 min 0 min 93 W/m 6,4 km/h (2 Bft) 95,74 %
04.02.2023 10:46 6,8 C 6,7 C 4,4 C 97 % 1036,7 hPa 0,0 l/m 0 min 0 min 101 W/m 6,4 km/h (2 Bft) 100,00 %
04.02.2023 10:44 6,8 C 6,7 C 4,4 C 97 % 1036,7 hPa 0,0 l/m 0 min 0 min 99 W/m 6,4 km/h (2 Bft) 100,00 %
04.02.2023 10:42 6,8 C 6,7 C 4,4 C 97 % 1036,6 hPa 0,0 l/m 0 min 0 min 97 W/m 6,4 km/h (2 Bft) 100,00 %
04.02.2023 10:40 6,8 C 7,2 C 4,4 C 97 % 1036,7 hPa 0,0 l/m 0 min 0 min 98 W/m 12,9 km/h (3 Bft) 95,74 %
04.02.2023 10:38 6,8 C 7,2 C 4,4 C 97 % 1036,7 hPa 0,0 l/m 0 min 0 min 108 W/m 6,4 km/h (2 Bft) 97,83 %
04.02.2023 10:36 6,8 C 7,2 C 4,4 C 97 % 1036,6 hPa 0,0 l/m 0 min 0 min 114 W/m 6,4 km/h (2 Bft) 100,00 %
04.02.2023 10:34 6,7 C 7,2 C 4,4 C 97 % 1036,6 hPa 0,0 l/m 0 min 0 min 121 W/m 6,4 km/h (2 Bft) 100,00 %
04.02.2023 10:32 6,7 C 7,2 C 4,4 C 97 % 1036,6 hPa 0,0 l/m 0 min 0 min 124 W/m 9,7 km/h (2 Bft) 95,74 %
04.02.2023 10:30 6,7 C 7,2 C 4,4 C 97 % 1036,6 hPa 0,0 l/m 0 min 0 min 116 W/m 6,4 km/h (2 Bft) 95,74 %
04.02.2023 10:28 6,7 C 7,2 C 3,9 C 97 % 1036,6 hPa 0,0 l/m 0 min 0 min 109 W/m 0,0 km/h (0 Bft) 95,74 %
04.02.2023 10:26 6,7 C 7,2 C 3,9 C 97 % 1036,6 hPa 0,0 l/m 0 min 0 min 110 W/m 3,2 km/h (1 Bft) 95,74 %
04.02.2023 10:24 6,6 C 6,7 C 3,9 C 97 % 1036,6 hPa 0,0 l/m 0 min 0 min 106 W/m 6,4 km/h (2 Bft) 93,48 %
04.02.2023 10:22 6,6 C 6,7 C 3,9 C 97 % 1036,6 hPa 0,0 l/m 0 min 0 min 91 W/m 6,4 km/h (2 Bft) 95,74 %
04.02.2023 10:20 6,6 C 6,7 C 3,9 C 97 % 1036,6 hPa 0,0 l/m 0 min 0 min 89 W/m 3,2 km/h (1 Bft) 95,74 %
04.02.2023 10:18 6,5 C 6,7 C 3,9 C 97 % 1036,5 hPa 0,0 l/m 0 min 0 min 89 W/m 3,2 km/h (1 Bft) 97,87 %
04.02.2023 10:16 6,5 C 6,7 C 3,9 C 97 % 1036,6 hPa 0,0 l/m 0 min 0 min 87 W/m 3,2 km/h (1 Bft) 95,74 %
04.02.2023 10:14 6,5 C 6,7 C 3,9 C 97 % 1036,5 hPa 0,0 l/m 0 min 0 min 84 W/m 3,2 km/h (1 Bft) 95,74 %
04.02.2023 10:12 6,5 C 6,7 C 3,9 C 97 % 1036,5 hPa 0,0 l/m 0 min 0 min 80 W/m 6,4 km/h (2 Bft) 95,65 %
04.02.2023 10:10 6,5 C 6,7 C 3,9 C 97 % 1036,5 hPa 0,0 l/m 0 min 0 min 77 W/m 3,2 km/h (1 Bft) 93,62 %
04.02.2023 10:08 6,4 C 6,7 C 3,9 C 97 % 1036,5 hPa 0,0 l/m 0 min 0 min 74 W/m 3,2 km/h (1 Bft) 91,43 %
04.02.2023 10:06 6,4 C 6,7 C 3,9 C 97 % 1036,4 hPa 0,0 l/m 0 min 0 min 73 W/m 3,2 km/h (1 Bft) 94,92 %
04.02.2023 10:04 6,4 C 6,7 C 3,9 C 97 % 1036,4 hPa 0,0 l/m 0 min 0 min 68 W/m 6,4 km/h (2 Bft) 95,74 %
04.02.2023 10:02 6,4 C 6,7 C 3,9 C 97 % 1036,4 hPa 0,0 l/m 0 min 0 min 63 W/m 0,0 km/h (0 Bft) 93,62 %
04.02.2023 10:00 6,4 C 6,7 C 3,9 C 97 % 1036,4 hPa 0,0 l/m 0 min 0 min 66 W/m 3,2 km/h (1 Bft) 95,74 %
_ Min-Zeit 02:44 21:06 22:22 15:32 08:02 - - - - 10:02 11:56
Minimum _ 6,2 C 5,0 C 1,7 C 80 % 1035,5 hPa - - - - 0,0 km/h (0 Bft) 6,25 %
_ Max-Zeit 14:28 13:10 12:34 05:22 00:30 23:42 12:12 00:08 13:10 09:06 10:34
Maximum _ 9,6 C 12,2 C 6,7 C 98 % 1038,0 hPa 0,2 l/m 4 min 4 min 349 W/m 19,3 km/h
NW (3 Bft)
100,00 %
Durchschnitt _ 7,3 C 7,0 C 3,7 C 91 % 1036,8 hPa #1,2 l/m #0 min. #1:26 h 7 W/m 3,2 km/h (1 Bft) 94,43 %
© 2023 W. Hausmann